Flight Track Log - Related Links

Times and Time Zones

All times are in EDT time to prevent confusion due to time zone crossing. See the A6-EDC flight status page for this flight to view local times or setup timezone preferences in your user account.

Time Position Orientation Groundspeed Altitude Reporting Facility
EDT Latitude Longitude Course Direction KTS MPH feet Rate Location/Type
Thu 11:34:43 PM 25.2500 55.3610 75° East  Level FlightAware ADS-B
Thu 11:44:00 PM 25.4258 55.2140 326° Northwest  Level FlightAware Approximate
Thu 11:45:00 PM 25.5245 55.1338 322° Northwest  Level FlightAware Approximate
Thu 11:46:00 PM 25.6233 55.0534 326° Northwest  Level FlightAware Approximate
Thu 11:47:00 PM 25.7246 54.9768 324° Northwest  Level FlightAware Approximate
Thu 11:48:00 PM 25.8231 54.8959 324° Northwest  Level FlightAware Approximate
Thu 11:49:00 PM 25.9215 54.8148 323° Northwest  Level FlightAware Approximate
Thu 11:50:00 PM 26.0200 54.7336 324° Northwest  Level FlightAware Approximate
Thu 11:51:00 PM 26.1188 54.6529 324° Northwest  Level FlightAware Approximate
Thu 11:52:00 PM 26.2172 54.5714 323° Northwest  Level FlightAware Approximate
Thu 11:53:00 PM 26.3148 54.4888 323° Northwest  Level FlightAware Approximate
Thu 11:54:00 PM 26.4126 54.4063 324° Northwest  Level FlightAware Approximate
Thu 11:54:42 PM 25.2500 55.3600 270° West  Level FlightAware ADS-B
Thu 11:55:44 PM 25.2500 55.3610 90° East Level FlightAware ADS-B
Thu 11:57:31 PM 25.2500 55.3600 270° West Level FlightAware ADS-B
Fri 12:00:00 AM 25.4987 55.1559 322° Northwest  Level FlightAware Approximate
Fri 12:01:00 AM 25.5962 55.0737 326° Northwest  Level FlightAware Approximate
Fri 12:02:00 AM 25.6977 54.9976 326° Northwest  Level FlightAware Approximate
Fri 12:03:00 AM 25.7968 54.9175 324° Northwest  Level FlightAware Approximate
Fri 12:03:15 AM 25.2500 55.3610 324° Northwest  Level FlightAware ADS-B
Fri 12:03:47 AM 25.2500 55.3600 270° West Level FlightAware ADS-B
Fri 12:06:00 AM 25.4728 55.1781 322° Northwest  Level FlightAware Approximate
Fri 12:06:31 AM 25.2500 55.3610 322° Northwest  Level FlightAware ADS-B
Fri 12:09:00 AM 25.4987 55.1559 322° Northwest  Level FlightAware Approximate
Fri 12:10:00 AM 25.5962 55.0737 326° Northwest  Level FlightAware Approximate
Fri 12:10:15 AM 25.2500 55.3600 326° Northwest  Level FlightAware ADS-B
Fri 12:12:00 AM 25.4258 55.2140 326° Northwest  Level FlightAware Approximate
Fri 12:13:00 AM 25.5245 55.1338 322° Northwest  Level FlightAware Approximate
Fri 12:13:36 AM 25.2500 55.3610 322° Northwest  Level FlightAware ADS-B
Fri 12:16:00 AM 25.4906 55.1628 322° Northwest  Level FlightAware Approximate
Fri 12:17:00 AM 25.5877 55.0800 326° Northwest  Level FlightAware Approximate
Fri 12:18:00 AM 25.6893 55.0039 326° Northwest  Level FlightAware Approximate
Fri 12:19:00 AM 25.7886 54.9242 324° Northwest  Level FlightAware Approximate
Fri 12:20:00 AM 25.8871 54.8432 323° Northwest  Level FlightAware Approximate
Fri 12:21:00 AM 25.9855 54.7620 323° Northwest  Level FlightAware Approximate
Fri 12:22:00 AM 26.0842 54.6811 324° Northwest  Level FlightAware Approximate
Fri 12:23:00 AM 26.1830 54.6003 324° Northwest  Level FlightAware Approximate
Fri 12:24:00 AM 26.2807 54.5177 323° Northwest  Level FlightAware Approximate
Fri 12:27:00 AM 25.5051 55.1504 322° Northwest  Level FlightAware Approximate
Fri 12:28:00 AM 25.6030 55.0686 326° Northwest  Level FlightAware Approximate
Fri 12:29:00 AM 25.7045 54.9925 326° Northwest  Level FlightAware Approximate
Fri 12:30:00 AM 25.8034 54.9121 324° Northwest  Level FlightAware Approximate
Fri 12:31:00 AM 25.9018 54.8310 323° Northwest  Level FlightAware Approximate
Fri 12:32:00 AM 26.0003 54.7498 324° Northwest  Level FlightAware Approximate
Fri 12:33:00 AM 26.0991 54.6690 324° Northwest  Level FlightAware Approximate
Fri 12:34:00 AM 26.1977 54.5879 323° Northwest  Level FlightAware Approximate
Fri 12:35:00 AM 26.2953 54.5053 323° Northwest  Level FlightAware Approximate
Fri 12:36:00 AM 26.3929 54.4227 323° Northwest  Level FlightAware Approximate
Fri 12:37:00 AM 26.4916 54.3414 324° Northwest  Level FlightAware Approximate
Fri 12:38:00 AM 26.5902 54.2602 324° Northwest  Level FlightAware Approximate
Fri 12:39:00 AM 26.6891 54.1792 327° Northwest  Level FlightAware Approximate
Fri 12:40:00 AM 26.7925 54.1054 327° Northwest  Level FlightAware Approximate
Fri 12:41:00 AM 26.8907 54.0233 323° Northwest  Level FlightAware Approximate
Fri 12:42:00 AM 26.9886 53.9405 323° Northwest  Level FlightAware Approximate
Fri 12:43:00 AM 27.0867 53.8581 323° Northwest  Level FlightAware Approximate
Fri 12:44:00 AM 27.1849 53.7757 323° Northwest  Level FlightAware Approximate
Fri 12:45:00 AM 27.2831 53.6932 323° Northwest  Level FlightAware Approximate
Fri 12:46:00 AM 27.3795 53.6121 323° Northwest  Level FlightAware Approximate
Fri 12:47:00 AM 27.4760 53.5312 324° Northwest  Level FlightAware Approximate
Fri 12:48:00 AM 27.5728 53.4505 324° Northwest  Level FlightAware Approximate
Fri 12:49:00 AM 27.6695 53.3697 324° Northwest  Level FlightAware Approximate
Fri 12:50:00 AM 27.7662 53.2887 323° Northwest  Level FlightAware Approximate
Fri 12:51:00 AM 27.8628 53.2076 323° Northwest  Level FlightAware Approximate
Fri 12:52:00 AM 27.9594 53.1264 323° Northwest  Level FlightAware Approximate
Fri 12:53:00 AM 28.0559 53.0449 323° Northwest  Level FlightAware Approximate
Fri 12:54:00 AM 28.1518 52.9625 323° Northwest  Level FlightAware Approximate
Fri 12:55:00 AM 28.2477 52.8800 323° Northwest  Level FlightAware Approximate
Fri 12:56:00 AM 28.3435 52.7973 323° Northwest  Level FlightAware Approximate
Fri 12:57:00 AM 28.4392 52.7144 323° Northwest  Level FlightAware Approximate
Fri 12:58:00 AM 28.5349 52.6314 323° Northwest  Level FlightAware Approximate
Fri 12:59:00 AM 28.6312 52.5478 323° Northwest  Level FlightAware Approximate
Fri 01:00:00 AM 28.7274 52.4639 323° Northwest  Level FlightAware Approximate
Fri 01:01:00 AM 28.8235 52.3800 323° Northwest  Level FlightAware Approximate
Fri 01:02:00 AM 28.9196 52.2958 323° Northwest  Level FlightAware Approximate
Fri 01:03:00 AM 29.0156 52.2116 323° Northwest  Level FlightAware Approximate
Fri 01:04:00 AM 29.1117 52.1274 323° Northwest  Level FlightAware Approximate
Fri 01:05:00 AM 29.2080 52.0432 323° Northwest  Level FlightAware Approximate
Fri 01:06:00 AM 29.3041 51.9590 323° Northwest  Level FlightAware Approximate
Fri 01:06:50 AM 25.2590 55.3530 24° Northeast  Level FlightAware ADS-B
Fri 01:07:32 AM 25.2600 55.3540 42° Northeast 51 Level FlightAware ADS-B
Fri 01:08:04 AM 25.2600 55.3550 90° East 55 Level FlightAware ADS-B
Fri 01:08:30 AM 25.2590 55.3570 119° Southeast 59 Level FlightAware ADS-B
Fri 01:09:14 AM 25.2570 55.3600 126° Southeast 62 Level FlightAware ADS-B
Fri 01:09:46 AM 25.2560 55.3630 110° East 68 Level FlightAware ADS-B
Fri 01:10:10 AM 25.2540 55.3650 138° Southeast 73 Level FlightAware ADS-B
Fri 01:11:25 AM 25.2510 55.3720 115° Southeast 78 Level FlightAware ADS-B
Fri 01:11:49 AM 25.2500 55.3730 138° Southeast 96 Level FlightAware ADS-B
Fri 01:12:26 AM 25.2480 55.3760 126° Southeast 105 Level FlightAware ADS-B
Fri 01:14:53 AM 25.2470 55.3800 322° Northwest 120 Level FlightAware ADS-B
Fri 01:15:00 AM 25.4975 55.1709 322° Northwest  Level Estimated
Fri 01:15:35 AM 25.2480 55.3800 360° North  Level FlightAware ADS-B
Fri 01:16:15 AM 25.2490 55.3790 318° Northwest 492 Level FlightAware ADS-B
Fri 01:16:36 AM 25.2530 55.3720 302° West 96 110 500 792 Climbing FlightAware ADS-B
Fri 01:17:08 AM 25.2650 55.3490 300° West 176 203 700 536 Climbing FlightAware ADS-B
Fri 01:17:32 AM 25.2730 55.3360 304° West 182 209 1,000 1,158 Climbing FlightAware ADS-B
Fri 01:18:05 AM 25.2910 55.3030 301° West 195 224 1,800 987 Climbing FlightAware ADS-B
Fri 01:18:51 AM 25.3230 55.2710 318° Northwest 226 260 2,300 833 Climbing FlightAware ADS-B
Fri 01:19:17 AM 25.3580 55.2860 21° North 249 287 2,800 1,286 Climbing FlightAware ADS-B
Fri 01:19:47 AM 25.3840 55.3060 35° Northeast 267 307 3,500 1,457 Climbing FlightAware ADS-B
Fri 01:20:27 AM 25.4230 55.3340 33° Northeast 274 315 4,500 1,622 Climbing FlightAware ADS-B
Fri 01:21:01 AM 25.4580 55.3600 34° Northeast 273 314 5,500 1,729 Climbing FlightAware ADS-B
Fri 01:21:26 AM 25.4810 55.3760 32° Northeast 273 314 6,200 1,615 Climbing FlightAware ADS-B
Fri 01:21:53 AM 25.5020 55.3910 33° Northeast 268 308 6,900 957 Climbing FlightAware ADS-B
Fri 01:22:35 AM 25.5440 55.4220 34° Northeast 271 312 7,300 362 Climbing FlightAware ADS-B
Fri 01:25:00 AM 25.7791 55.2287 323° Northwest  Level Estimated
Fri 01:26:00 AM 25.8762 55.1485 323° Northwest  Level Estimated
Fri 01:27:00 AM 25.9734 55.0681 323° Northwest  Level Estimated
Fri 01:28:00 AM 26.0705 54.9877 323° Northwest  Level Estimated
Fri 01:29:00 AM 26.1675 54.9070 323° Northwest  Level Estimated
Fri 01:30:00 AM 26.2645 54.8263 323° Northwest  Level Estimated
Fri 01:31:00 AM 26.3615 54.7454 323° Northwest  Level Estimated
Fri 01:32:00 AM 26.4584 54.6644 323° Northwest  Level Estimated
Fri 01:33:00 AM 26.5553 54.5832 323° Northwest  Level Estimated
Fri 01:34:00 AM 26.6521 54.5019 323° Northwest  Level Estimated
Fri 01:35:00 AM 26.7489 54.4205 323° Northwest  Level Estimated
Fri 01:36:00 AM 26.8456 54.3390 323° Northwest  Level Estimated
Fri 01:37:00 AM 26.9423 54.2572 323° Northwest  Level Estimated
Fri 01:38:00 AM 27.0390 54.1754 323° Northwest  Level Estimated
Fri 01:39:00 AM 27.1355 54.0934 323° Northwest  Level Estimated
Fri 01:40:00 AM 27.2321 54.0113 323° Northwest  Level Estimated
Fri 01:41:00 AM 27.3286 53.9290 323° Northwest  Level Estimated
Fri 01:42:00 AM 27.4250 53.8466 323° Northwest  Level Estimated
Fri 01:43:00 AM 27.5214 53.7640 323° Northwest  Level Estimated
Fri 01:44:00 AM 27.6178 53.6813 323° Northwest  Level Estimated
Fri 01:45:00 AM 27.7141 53.5985 323° Northwest  Level Estimated
Fri 01:46:00 AM 27.8103 53.5155 323° Northwest  Level Estimated
Fri 01:47:00 AM 27.9065 53.4323 323° Northwest  Level Estimated
Fri 01:48:00 AM 28.0027 53.3490 323° Northwest  Level Estimated
Fri 01:49:00 AM 28.0988 53.2656 323° Northwest  Level Estimated
Fri 01:50:00 AM 28.1948 53.1820 323° Northwest  Level Estimated
Fri 01:51:00 AM 28.2908 53.0983 322° Northwest  Level Estimated
Fri 01:52:00 AM 28.3868 53.0144 322° Northwest  Level Estimated
Fri 01:53:00 AM 28.4827 52.9303 322° Northwest  Level Estimated
Fri 01:54:00 AM 28.5785 52.8461 322° Northwest  Level Estimated
Fri 01:55:00 AM 28.6743 52.7618 322° Northwest  Level Estimated
Fri 01:56:00 AM 28.7701 52.6773 322° Northwest  Level Estimated
Fri 01:57:00 AM 28.8658 52.5926 322° Northwest  Level Estimated
Fri 01:58:00 AM 28.9614 52.5078 322° Northwest  Level Estimated
Fri 01:59:00 AM 29.0570 52.4228 322° Northwest  Level Estimated
Fri 02:00:00 AM 29.1525 52.3377 322° Northwest  Level Estimated
Fri 02:01:00 AM 29.2480 52.2524 322° Northwest  Level Estimated
Fri 02:02:00 AM 29.3434 52.1669 322° Northwest  Level Estimated
Fri 02:03:00 AM 29.4388 52.0813 322° Northwest  Level Estimated
Fri 02:04:00 AM 29.5341 51.9956 322° Northwest  Level Estimated
Fri 02:05:00 AM 29.6294 51.9096 322° Northwest  Level Estimated
Fri 02:06:00 AM 29.7246 51.8235 322° Northwest  Level Estimated
Fri 02:07:00 AM 29.8197 51.7373 322° Northwest  Level Estimated
Fri 02:08:00 AM 29.9148 51.6509 322° Northwest  Level Estimated
Fri 02:09:00 AM 30.0098 51.5643 322° Northwest  Level Estimated
Fri 02:10:00 AM 30.1048 51.4775 322° Northwest  Level Estimated
Fri 02:11:00 AM 30.1997 51.3906 322° Northwest  Level Estimated
Fri 02:12:00 AM 30.2946 51.3035 322° Northwest  Level Estimated
Fri 02:13:00 AM 30.3894 51.2163 322° Northwest  Level Estimated
Fri 02:14:00 AM 30.4841 51.1288 322° Northwest  Level Estimated
Fri 02:15:00 AM 30.5788 51.0412 321° Northwest  Level Estimated
Fri 02:16:00 AM 30.6735 50.9534 321° Northwest  Level Estimated
Fri 02:17:00 AM 30.7680 50.8655 321° Northwest  Level Estimated
Fri 02:18:00 AM 30.8625 50.7774 321° Northwest  Level Estimated
Fri 02:19:00 AM 30.9570 50.6891 321° Northwest  Level Estimated
Fri 02:20:00 AM 31.0514 50.6007 321° Northwest  Level Estimated
Fri 02:21:00 AM 31.1457 50.5120 321° Northwest  Level Estimated
Fri 02:22:00 AM 31.2400 50.4232 321° Northwest  Level Estimated
Fri 02:23:00 AM 31.3342 50.3342 321° Northwest  Level Estimated
Fri 02:24:00 AM 31.4283 50.2450 321° Northwest  Level Estimated
Fri 02:25:00 AM 31.5224 50.1557 321° Northwest  Level Estimated
Fri 02:26:00 AM 31.6164 50.0662 321° Northwest  Level Estimated
Fri 02:27:00 AM 31.7104 49.9765 321° Northwest  Level Estimated
Fri 02:28:00 AM 31.8043 49.8866 321° Northwest  Level Estimated
Fri 02:29:00 AM 31.8981 49.7965 321° Northwest  Level Estimated
Fri 02:30:00 AM 31.9919 49.7062 321° Northwest  Level Estimated
Fri 02:31:00 AM 32.0856 49.6158 321° Northwest  Level Estimated
Fri 02:32:00 AM 32.1792 49.5252 321° Northwest  Level Estimated
Fri 02:33:00 AM 32.2728 49.4343 321° Northwest  Level Estimated
Fri 02:34:00 AM 32.3663 49.3433 321° Northwest  Level Estimated
Fri 02:35:00 AM 32.4598 49.2522 321° Northwest  Level Estimated
Fri 02:36:00 AM 32.5532 49.1608 320° Northwest  Level Estimated
Fri 02:36:45 AM 34.4010 52.7740 320° Northwest 480 552 34,000  Level FlightAware ADS-B
Fri 02:37:00 AM 32.6465 49.0692 320° Northwest  Level Estimated
Fri 02:37:25 AM 34.4720 52.6930 317° Northwest 478 550 34,000  Level FlightAware ADS-B
Fri 02:38:06 AM 34.5490 52.6070 317° Northwest 477 549 34,000  Level FlightAware ADS-B
Fri 02:38:52 AM 34.6140 52.5330 317° Northwest 476 548 34,000  Level FlightAware ADS-B
Fri 02:39:38 AM 34.6950 52.4410 317° Northwest 474 545 34,000  Level FlightAware ADS-B
Fri 02:40:22 AM 34.7640 52.3640 317° Northwest 473 544 34,000  Level FlightAware ADS-B
Fri 02:41:00 AM 34.8330 52.3000 323° Northwest 477 549 34,000  Level FlightAware ADS-B
Fri 02:41:42 AM 34.9040 52.2500 330° Northwest 481 554 34,000  Level FlightAware ADS-B
Fri 02:42:27 AM 35.0000 52.2030 338° Northwest 488 562 34,000  Level FlightAware ADS-B
Fri 02:43:04 AM 35.0800 52.1710 342° North 488 562 34,000  Level FlightAware ADS-B
Fri 02:43:49 AM 35.1760 52.1300 341° North 487 560 34,000  Level FlightAware ADS-B
Fri 02:44:26 AM 35.2600 52.0960 342° North 486 559 34,000  Level FlightAware ADS-B
Fri 02:45:04 AM 35.3330 52.0650 341° North 485 558 34,000  Level FlightAware ADS-B
Fri 02:46:24 AM 35.5070 51.9920 341° North 486 559 34,000  Level FlightAware ADS-B
Fri 02:47:21 AM 35.6290 51.9410 341° North 488 562 34,000  Level FlightAware ADS-B
Fri 02:48:11 AM 35.7360 51.8960 341° North 489 563 34,000  Level FlightAware ADS-B
Fri 02:48:44 AM 35.7940 51.8710 341° North 489 563 34,000  Level FlightAware ADS-B
Fri 02:49:29 AM 35.9000 51.8270 341° North 489 563 34,000  Level FlightAware ADS-B
Fri 02:50:24 AM 36.0110 51.7780 340° North 489 563 34,000  Level FlightAware ADS-B
Fri 02:51:20 AM 36.1140 51.7260 338° Northwest 483 556 34,000  Level FlightAware ADS-B
Fri 02:51:56 AM 36.1770 51.6940 338° Northwest 483 556 34,000  Level FlightAware ADS-B
Fri 02:53:12 AM 36.3490 51.6160 340° North 483 556 34,000  Level FlightAware ADS-B
Fri 02:53:48 AM 36.4130 51.5860 339° North 483 556 34,000  Level FlightAware ADS-B
Fri 02:54:36 AM 36.4980 51.5450 339° North 483 556 34,000  Level FlightAware ADS-B
Fri 02:55:25 AM 36.5850 51.5030 339° North 483 556 34,000  Level FlightAware ADS-B
Fri 02:56:01 AM 36.6480 51.4730 339° North 483 556 34,000  Level FlightAware ADS-B
Fri 02:56:38 AM 36.7140 51.4410 339° North 483 556 34,000  Level FlightAware ADS-B
Fri 02:57:18 AM 36.7850 51.4070 339° North 483 556 34,000  Level FlightAware ADS-B
Fri 02:58:07 AM 36.8720 51.3660 339° North 483 556 34,000  Level FlightAware ADS-B
Fri 02:58:43 AM 36.9360 51.3350 339° North 483 556 34,000  Level FlightAware ADS-B
Fri 02:59:29 AM 37.0170 51.2960 339° North 483 556 34,000  Level FlightAware ADS-B
Fri 03:00:12 AM 37.0940 51.2590 339° North 483 556 34,000  Level FlightAware ADS-B
Fri 03:00:48 AM 37.1570 51.2290 339° North 483 556 34,000  Level FlightAware ADS-B
Fri 03:01:58 AM 37.2820 51.1690 339° North 483 556 34,000  Level FlightAware ADS-B
Fri 03:02:34 AM 37.3450 51.1380 339° North 483 556 34,000  Level FlightAware ADS-B
Fri 03:05:00 AM 37.5772 50.9044 321° Northwest  Level Estimated
Fri 03:06:00 AM 37.6725 50.8080 321° Northwest  Level Estimated
Fri 03:07:00 AM 37.7677 50.7114 321° Northwest  Level Estimated
Fri 03:08:00 AM 37.8628 50.6144 321° Northwest  Level Estimated
Fri 03:09:00 AM 37.9579 50.5173 321° Northwest  Level Estimated
Fri 03:10:00 AM 38.0528 50.4199 321° Northwest  Level Estimated
Fri 03:11:00 AM 38.1477 50.3222 321° Northwest  Level Estimated
Fri 03:12:00 AM 38.2425 50.2243 321° Northwest  Level Estimated
Fri 03:13:00 AM 38.3373 50.1261 321° Northwest  Level Estimated
Fri 03:14:00 AM 38.4319 50.0277 321° Northwest  Level Estimated
Fri 03:15:00 AM 38.5265 49.9290 321° Northwest  Level Estimated
Fri 03:16:00 AM 38.6210 49.8301 321° Northwest  Level Estimated
Fri 03:17:00 AM 38.7154 49.7309 321° Northwest  Level Estimated
Fri 03:18:00 AM 38.8097 49.6314 321° Northwest  Level Estimated
Fri 03:19:00 AM 38.9039 49.5317 321° Northwest  Level Estimated
Fri 03:20:00 AM 38.9981 49.4316 320° Northwest  Level Estimated
Fri 03:21:00 AM 39.0921 49.3314 320° Northwest  Level Estimated
Fri 03:22:00 AM 39.1861 49.2309 320° Northwest  Level Estimated
Fri 03:23:00 AM 39.2800 49.1301 320° Northwest  Level Estimated
Fri 03:24:00 AM 39.3738 49.0290 320° Northwest  Level Estimated
Fri 03:25:00 AM 39.4675 48.9276 320° Northwest  Level Estimated
Fri 03:26:00 AM 39.5611 48.8260 320° Northwest  Level Estimated
Fri 03:27:00 AM 39.6546 48.7241 320° Northwest  Level Estimated
Fri 03:28:00 AM 39.7481 48.6220 320° Northwest  Level Estimated
Fri 03:29:00 AM 39.8414 48.5195 320° Northwest  Level Estimated
Fri 03:30:00 AM 39.9347 48.4168 320° Northwest  Level Estimated
Fri 03:31:00 AM 40.0279 48.3138 320° Northwest  Level Estimated
Fri 03:32:00 AM 40.1210 48.2105 320° Northwest  Level Estimated
Fri 03:33:00 AM 40.2140 48.1069 320° Northwest  Level Estimated
Fri 03:34:00 AM 40.3069 48.0031 320° Northwest  Level Estimated
Fri 03:35:00 AM 40.3997 47.8989 319° Northwest  Level Estimated
Fri 03:36:00 AM 40.4924 47.7945 319° Northwest  Level Estimated
Fri 03:37:00 AM 40.5850 47.6898 319° Northwest  Level Estimated
Fri 03:38:00 AM 40.6775 47.5848 319° Northwest  Level Estimated
Fri 03:39:00 AM 40.7699 47.4795 319° Northwest  Level Estimated
Fri 03:40:00 AM 40.8623 47.3739 319° Northwest  Level Estimated
Fri 03:41:00 AM 40.9545 47.2680 319° Northwest  Level Estimated
Fri 03:42:00 AM 41.0466 47.1618 319° Northwest  Level Estimated
Fri 03:43:00 AM 41.1387 47.0553 319° Northwest  Level Estimated
Fri 03:44:00 AM 41.2306 46.9486 319° Northwest  Level Estimated
Fri 03:45:00 AM 41.3225 46.8415 319° Northwest  Level Estimated
Fri 03:46:00 AM 41.4142 46.7341 319° Northwest  Level Estimated
Fri 03:47:00 AM 41.5058 46.6264 319° Northwest  Level Estimated
Fri 03:48:00 AM 41.5974 46.5184 319° Northwest  Level Estimated
Fri 03:49:00 AM 41.6888 46.4101 319° Northwest  Level Estimated
Fri 03:50:00 AM 41.7802 46.3015 318° Northwest  Level Estimated
Fri 03:51:00 AM 41.8714 46.1926 318° Northwest  Level Estimated
Fri 03:52:00 AM 41.9625 46.0834 318° Northwest  Level Estimated
Fri 03:53:00 AM 42.0536 45.9739 318° Northwest  Level Estimated
Fri 03:54:00 AM 42.1445 45.8640 318° Northwest  Level Estimated
Fri 03:55:00 AM 42.2353 45.7538 318° Northwest  Level Estimated
Fri 03:56:00 AM 42.3260 45.6433 318° Northwest  Level Estimated
Fri 03:57:00 AM 42.4166 45.5325 318° Northwest  Level Estimated
Fri 03:58:00 AM 42.5071 45.4214 318° Northwest  Level Estimated
Fri 03:59:00 AM 42.5975 45.3100 318° Northwest  Level Estimated
Fri 04:00:00 AM 42.6878 45.1982 318° Northwest  Level Estimated
Fri 04:01:00 AM 42.7780 45.0861 318° Northwest  Level Estimated
Fri 04:02:00 AM 42.8680 44.9737 318° Northwest  Level Estimated
Fri 04:03:00 AM 42.9580 44.8609 317° Northwest  Level Estimated
Fri 04:04:00 AM 43.0478 44.7478 317° Northwest  Level Estimated
Fri 04:04:21 AM 45.0870 47.6400 317° Northwest 469 540 34,000  Level FlightAware ADS-B
Fri 04:04:47 AM 45.0400 47.6720 154° Southeast 470 541 34,000  Level FlightAware ADS-B
Fri 04:05:00 AM 43.1376 44.6344 317° Northwest  Level Estimated
Fri 04:05:38 AM 45.1250 47.6140 334° Northwest 470 541 34,000  Level FlightAware ADS-B
Fri 04:06:30 AM 45.0880 47.6390 154° Southeast 468 539 34,000  Level FlightAware ADS-B
Fri 04:07:07 AM 45.4220 47.4150 335° Northwest 468 539 34,000  Level FlightAware ADS-B
Fri 04:07:50 AM 45.4930 47.3640 333° Northwest 468 539 34,000  Level FlightAware ADS-B
Fri 04:08:51 AM 45.6200 47.2770 334° Northwest 467 537 34,000  Level FlightAware ADS-B
Fri 04:09:46 AM 45.7300 47.2000 334° Northwest 467 537 34,000  Level FlightAware ADS-B
Fri 04:10:31 AM 45.8180 47.1370 333° Northwest 468 539 34,000  Level FlightAware ADS-B
Fri 04:10:56 AM 45.8650 47.1040 334° Northwest 469 540 34,000  Level FlightAware ADS-B
Fri 04:11:41 AM 45.9550 47.0400 334° Northwest 469 540 34,000  Level FlightAware ADS-B
Fri 04:12:22 AM 46.0260 46.9850 332° Northwest 469 540 34,000  Level FlightAware ADS-B
Fri 04:13:17 AM 46.1370 46.8970 331° Northwest 470 541 34,000  Level FlightAware ADS-B
Fri 04:13:52 AM 46.1370 46.8970 331° Northwest 471 542 34,000  Level FlightAware ADS-B
Fri 04:14:32 AM 46.2780 46.7770 330° Northwest 469 540 34,000  Level FlightAware ADS-B
Fri 04:15:17 AM 46.3540 46.7070 328° Northwest 468 539 34,000  Level FlightAware ADS-B
Fri 04:15:52 AM 46.4250 46.6420 328° Northwest 468 539 34,000  Level FlightAware ADS-B
Fri 04:16:50 AM 46.5220 46.5520 327° Northwest 468 539 34,000  Level FlightAware ADS-B
Fri 04:17:27 AM 46.5960 46.4840 328° Northwest 467 537 34,000  Level FlightAware ADS-B
Fri 04:18:06 AM 46.6710 46.4140 327° Northwest 466 536 34,000  Level FlightAware ADS-B
Fri 04:18:56 AM 46.7610 46.3300 327° Northwest 467 537 34,000  Level FlightAware ADS-B
Fri 04:19:33 AM 46.8250 46.2700 327° Northwest 470 541 34,000  Level FlightAware ADS-B
Fri 04:20:17 AM 46.9080 46.1910 327° Northwest 472 543 34,000  Level FlightAware ADS-B
Fri 04:20:52 AM 46.9720 46.1300 327° Northwest 473 544 34,000  Level FlightAware ADS-B
Fri 04:21:47 AM 47.0710 46.0370 327° Northwest 475 547 34,000  Level FlightAware ADS-B
Fri 04:22:27 AM 47.1460 45.9660 327° Northwest 477 549 34,000  Level FlightAware ADS-B
Fri 04:23:12 AM 47.2310 45.8850 327° Northwest 475 547 34,000  Level FlightAware ADS-B
Fri 04:23:57 AM 47.3110 45.8090 327° Northwest 474 545 34,000  Level FlightAware ADS-B
Fri 04:24:55 AM 47.4070 45.7150 326° Northwest 476 548 34,000  Level FlightAware ADS-B
Fri 04:25:34 AM 47.4670 45.6550 326° Northwest 476 548 34,000  Level FlightAware ADS-B
Fri 04:26:11 AM 47.5250 45.5980 326° Northwest 476 548 34,000  Level FlightAware ADS-B
Fri 04:26:59 AM 47.5990 45.5230 326° Northwest 476 548 34,000  Level FlightAware ADS-B
Fri 04:27:36 AM 47.6570 45.4660 327° Northwest 476 548 34,000  Level FlightAware ADS-B
Fri 04:28:24 AM 47.7310 45.3910 326° Northwest 476 548 34,000  Level FlightAware ADS-B
Fri 04:29:00 AM 47.7870 45.3350 326° Northwest 476 548 34,000  Level FlightAware ADS-B
Fri 04:29:47 AM 47.8600 45.2620 326° Northwest 476 548 34,000  Level FlightAware ADS-B
Fri 04:30:21 AM 47.9130 45.2080 326° Northwest 476 548 34,000  Level FlightAware ADS-B
Fri 04:31:10 AM 47.9890 45.1320 326° Northwest 476 548 34,000  Level FlightAware ADS-B
Fri 04:31:49 AM 48.0490 45.0710 326° Northwest 476 548 34,000  Level FlightAware ADS-B
Fri 04:32:38 AM 48.1250 44.9940 326° Northwest 476 548 34,000  Level FlightAware ADS-B
Fri 04:33:17 AM 48.3400 44.7960 329° Northwest 475 547 34,000  Level FlightAware ADS-B
Fri 04:33:57 AM 48.4170 44.7170 326° Northwest 477 549 34,000  Level FlightAware ADS-B
Fri 04:34:42 AM 48.4990 44.6340 326° Northwest 478 550 34,000  Level FlightAware ADS-B
Fri 04:35:22 AM 48.5720 44.5590 326° Northwest 479 551 34,000  Level FlightAware ADS-B
Fri 04:36:07 AM 48.6520 44.4760 326° Northwest 480 552 34,000  Level FlightAware ADS-B
Fri 04:36:37 AM 48.7100 44.4170 326° Northwest 482 555 34,000  Level FlightAware ADS-B
Fri 04:37:22 AM 48.7870 44.3340 325° Northwest 483 556 34,000  Level FlightAware ADS-B
Fri 04:38:02 AM 48.8570 44.2390 318° Northwest 484 557 34,000  Level FlightAware ADS-B
Fri 04:38:37 AM 48.9160 44.1580 318° Northwest 486 559 34,000  Level FlightAware ADS-B
Fri 04:39:22 AM 48.9840 44.0640 318° Northwest 485 558 34,000  Level FlightAware ADS-B
Fri 04:40:02 AM 49.0560 43.9640 318° Northwest 487 560 34,000  Level FlightAware ADS-B
Fri 04:40:42 AM 49.1180 43.8770 317° Northwest 488 562 34,000  Level FlightAware ADS-B
Fri 04:41:27 AM 49.1940 43.7710 318° Northwest 487 560 34,000  Level FlightAware ADS-B
Fri 04:42:07 AM 49.2610 43.6730 316° Northwest 489 563 34,000  Level FlightAware ADS-B
Fri 04:42:47 AM 49.3190 43.5650 310° West 493 567 34,000  Level FlightAware ADS-B
Fri 04:43:42 AM 49.3990 43.4130 309° West 493 567 34,000  Level FlightAware ADS-B
Fri 04:44:22 AM 49.4530 43.3070 308° West 494 568 34,000  Level FlightAware ADS-B
Fri 04:45:27 AM 49.5480 43.1240 309° West 496 571 34,000  Level FlightAware ADS-B
Fri 04:46:17 AM 49.6100 43.0030 308° West 496 571 34,000  Level FlightAware ADS-B
Fri 04:47:02 AM 49.6820 42.8630 309° West 494 568 34,000  Level FlightAware ADS-B
Fri 04:47:47 AM 49.7450 42.7380 308° West 493 567 34,000 71 Level FlightAware ADS-B
Fri 04:48:27 AM 49.8020 42.6260 308° West 496 571 34,100 366 Climbing FlightAware ADS-B
Fri 04:49:09 AM 49.8590 42.5120 308° West 499 574 34,500 706 Climbing FlightAware ADS-B
Fri 04:49:52 AM 49.9200 42.3920 308° West 498 573 35,100 1,125 Climbing FlightAware ADS-B
Fri 04:50:29 AM 49.9740 42.2830 308° West 488 562 36,000 621 Climbing FlightAware ADS-B
Fri 04:51:19 AM 50.0440 42.1430 308° West 494 568 36,000  Level FlightAware ADS-B
Fri 04:51:59 AM 50.1000 42.0300 308° West 493 567 36,000  Level FlightAware ADS-B
Fri 04:52:39 AM 50.1550 41.9190 308° West 492 566 36,000  Level FlightAware ADS-B
Fri 04:53:24 AM 50.2170 41.7920 307° West 490 564 36,000  Level FlightAware ADS-B
Fri 04:54:04 AM 50.2710 41.6800 307° West 490 564 36,000  Level FlightAware ADS-B
Fri 04:54:44 AM 50.3260 41.5690 308° West 489 563 36,000  Level FlightAware ADS-B
Fri 04:55:29 AM 50.3960 41.4520 313° West 489 563 36,000  Level FlightAware ADS-B
Fri 04:56:10 AM 50.4500 41.3590 312° West 489 563 36,000  Level FlightAware ADS-B
Fri 04:56:46 AM 50.4960 41.2780 312° West 489 563 36,000  Level FlightAware ADS-B
Fri 04:57:34 AM 50.5580 41.1700 312° West 489 563 36,000  Level FlightAware ADS-B
Fri 04:58:10 AM 50.6040 41.0890 312° West 489 563 36,000  Level FlightAware ADS-B
Fri 04:58:56 AM 50.6630 40.9850 312° West 489 563 36,000  Level FlightAware ADS-B
Fri 04:59:45 AM 50.7260 40.8750 312° West 489 563 36,000  Level FlightAware ADS-B
Fri 05:00:24 AM 50.7770 40.7860 312° West 489 563 36,000  Level FlightAware ADS-B
Fri 05:01:00 AM 50.8230 40.7050 312° West 489 563 36,000  Level FlightAware ADS-B
Fri 05:01:49 AM 50.8860 40.5940 312° West 489 563 36,000  Level FlightAware ADS-B
Fri 05:02:25 AM 50.9320 40.5120 312° West 489 563 36,000  Level FlightAware ADS-B
Fri 05:03:13 AM 50.9940 40.4040 312° West 489 563 36,000  Level FlightAware ADS-B
Fri 05:03:49 AM 51.0400 40.3220 312° West 489 563 36,000  Level FlightAware ADS-B
Fri 05:04:35 AM 51.0990 40.2170 312° West 489 563 36,000  Level FlightAware ADS-B
Fri 05:05:21 AM 51.1590 40.1120 312° West 489 563 36,000  Level FlightAware ADS-B
Fri 05:07:00 AM 51.2963 39.8765 313° West  Level Estimated
Fri 05:08:00 AM 51.3792 39.7331 313° West  Level Estimated
Fri 05:09:00 AM 51.4620 39.5891 313° West  Level Estimated
Fri 05:10:00 AM 51.5446 39.4447 313° West  Level Estimated
Fri 05:11:00 AM 51.6271 39.2997 313° West  Level Estimated
Fri 05:12:00 AM 51.7093 39.1542 312° West  Level Estimated
Fri 05:13:00 AM 51.7914 39.0081 312° West  Level Estimated
Fri 05:14:00 AM 51.8733 38.8615 312° West  Level Estimated
Fri 05:15:00 AM 51.9550 38.7144 312° West  Level Estimated
Fri 05:15:51 AM 52.1990 38.2380 312° West 464 534 36,000  Level FlightAware ADS-B
Fri 05:16:00 AM 52.0365 38.5668 312° West  Level Estimated
Fri 05:16:51 AM 52.3050 38.1430 331° Northwest 462 532 36,000  Level FlightAware ADS-B
Fri 05:17:27 AM 52.3800 38.0800 333° Northwest 463 533 36,000  Level FlightAware ADS-B
Fri 05:18:04 AM 52.4520 38.0200 333° Northwest 462 532 36,000  Level FlightAware ADS-B
Fri 05:18:49 AM 52.5330 37.9520 333° Northwest 461 531 36,000  Level FlightAware ADS-B
Fri 05:19:29 AM 52.6110 37.8860 333° Northwest 460 529 36,000  Level FlightAware ADS-B
Fri 05:20:14 AM 52.6990 37.8120 333° Northwest 461 531 36,000  Level FlightAware ADS-B
Fri 05:20:54 AM 52.7750 37.7470 333° Northwest 462 532 36,000  Level FlightAware ADS-B
Fri 05:21:34 AM 52.8480 37.6850 333° Northwest 462 532 36,000  Level FlightAware ADS-B
Fri 05:22:19 AM 52.9320 37.6140 333° Northwest 462 532 36,000  Level FlightAware ADS-B
Fri 05:22:51 AM 52.9850 37.5690 333° Northwest 462 532 36,000  Level FlightAware ADS-B
Fri 05:23:39 AM 53.0820 37.4840 332° Northwest 462 532 36,000  Level FlightAware ADS-B
Fri 05:24:15 AM 53.1560 37.4210 333° Northwest 462 532 36,000  Level FlightAware ADS-B
Fri 05:24:47 AM 53.2140 37.3700 332° Northwest 460 529 36,000  Level FlightAware ADS-B
Fri 05:25:35 AM 53.3000 37.2950 332° Northwest 459 528 36,000  Level FlightAware ADS-B
Fri 05:26:12 AM 53.3710 37.2330 332° Northwest 460 529 36,000  Level FlightAware ADS-B
Fri 05:26:49 AM 53.4430 37.1700 332° Northwest 461 531 36,000  Level FlightAware ADS-B
Fri 05:27:47 AM 53.5510 37.0720 332° Northwest 462 532 36,000  Level FlightAware ADS-B
Fri 05:28:31 AM 53.6270 36.9730 322° Northwest 465 535 36,000  Level FlightAware ADS-B
Fri 05:29:11 AM 53.6910 36.8730 317° Northwest 462 532 36,000  Level FlightAware ADS-B
Fri 05:29:55 AM 53.7590 36.7680 318° Northwest 461 531 36,000  Level FlightAware ADS-B
Fri 05:31:03 AM 53.8660 36.6010 317° Northwest 461 531 36,000  Level FlightAware ADS-B
Fri 05:31:55 AM 53.9480 36.4720 317° Northwest 462 532 36,000  Level FlightAware ADS-B
Fri 05:32:35 AM 54.0100 36.3750 317° Northwest 461 531 36,000  Level FlightAware ADS-B
Fri 05:33:15 AM 54.0720 36.2760 317° Northwest 458 527 36,000  Level FlightAware ADS-B
Fri 05:33:51 AM 54.1260 36.1900 317° Northwest 457 526 36,000  Level FlightAware ADS-B
Fri 05:34:35 AM 54.1920 36.0840 317° Northwest 457 526 36,000  Level FlightAware ADS-B
Fri 05:34:59 AM 54.2330 36.0190 317° Northwest 457 526 36,000  Level FlightAware ADS-B
Fri 05:35:44 AM 54.3020 35.9080 317° Northwest 458 527 36,000  Level FlightAware ADS-B
Fri 05:36:24 AM 54.3630 35.8130 318° Northwest 457 526 36,000  Level FlightAware ADS-B
Fri 05:37:04 AM 54.4260 35.7120 317° Northwest 457 526 36,000  Level FlightAware ADS-B
Fri 05:37:49 AM 54.4940 35.6050 318° Northwest 457 526 36,000  Level FlightAware ADS-B
Fri 05:38:34 AM 54.5660 35.4900 317° Northwest 458 527 36,000  Level FlightAware ADS-B
Fri 05:39:14 AM 54.6230 35.4010 318° Northwest 456 525 36,000  Level FlightAware ADS-B
Fri 05:39:54 AM 54.6900 35.2960 318° Northwest 455 524 36,000  Level FlightAware ADS-B
Fri 05:40:39 AM 54.7570 35.1830 316° Northwest 455 524 36,000  Level FlightAware ADS-B
Fri 05:41:19 AM 54.8120 35.0720 311° West 455 524 36,000  Level FlightAware ADS-B
Fri 05:42:04 AM 54.8720 34.9530 311° West 456 525 36,000  Level FlightAware ADS-B
Fri 05:42:44 AM 54.9290 34.8370 311° West 456 525 36,000  Level FlightAware ADS-B
Fri 05:43:27 AM 54.9880 34.7180 311° West 456 525 36,000  Level FlightAware ADS-B
Fri 05:44:03 AM 55.0380 34.6170 311° West 455 524 36,000  Level FlightAware ADS-B
Fri 05:44:51 AM 55.1040 34.4880 312° West 456 525 36,000  Level FlightAware ADS-B
Fri 05:45:27 AM 55.1510 34.3930 311° West 455 524 36,000  Level FlightAware ADS-B
Fri 05:46:07 AM 55.2060 34.2810 311° West 454 522 36,000  Level FlightAware ADS-B
Fri 05:46:51 AM 55.2670 34.1540 310° West 452 520 36,000  Level FlightAware ADS-B
Fri 05:47:27 AM 55.3170 34.0510 310° West 452 520 36,000  Level FlightAware ADS-B
Fri 05:48:03 AM 55.3470 33.9880 310° West 453 521 36,000  Level FlightAware ADS-B
Fri 05:48:47 AM 55.4160 33.8440 310° West 455 524 36,000  Level FlightAware ADS-B
Fri 05:49:29 AM 55.4790 33.7130 310° West 456 525 36,000  Level FlightAware ADS-B
Fri 05:50:16 AM 55.5400 33.5900 311° West 456 525 36,000  Level FlightAware ADS-B
Fri 05:50:54 AM 55.5960 33.4740 311° West 456 525 36,000  Level FlightAware ADS-B
Fri 05:51:34 AM 55.6540 33.3560 311° West 457 526 36,000  Level FlightAware ADS-B
Fri 05:52:19 AM 55.7160 33.2280 311° West 457 526 36,000  Level FlightAware ADS-B
Fri 05:52:54 AM 55.7610 33.1340 310° West 457 526 36,000  Level FlightAware ADS-B
Fri 05:53:34 AM 55.8180 33.0160 311° West 456 525 36,000  Level FlightAware ADS-B
Fri 05:54:20 AM 55.8750 32.8870 308° West 455 524 36,000  Level FlightAware ADS-B
Fri 05:54:50 AM 55.9120 32.7930 305° West 456 525 36,000  Level FlightAware ADS-B
Fri 05:55:35 AM 55.9690 32.6510 306° West 457 526 36,000  Level FlightAware ADS-B
Fri 05:56:15 AM 56.0130 32.5400 305° West 456 525 36,000  Level FlightAware ADS-B
Fri 05:56:59 AM 56.0690 32.3980 305° West 453 521 36,000  Level FlightAware ADS-B
Fri 05:57:39 AM 56.1180 32.2720 305° West 451 519 36,000  Level FlightAware ADS-B
Fri 05:58:24 AM 56.1690 32.1400 305° West 450 518 36,000  Level FlightAware ADS-B
Fri 05:59:04 AM 56.2150 32.0190 304° West 450 518 36,000  Level FlightAware ADS-B
Fri 05:59:44 AM 56.2610 31.8920 303° West 452 520 36,000  Level FlightAware ADS-B
Fri 06:00:43 AM 56.3320 31.6970 303° West 452 520 36,000  Level FlightAware ADS-B
Fri 06:01:21 AM 56.3680 31.5950 303° West 452 520 36,000  Level FlightAware ADS-B
Fri 06:02:09 AM 56.4150 31.4660 303° West 452 520 36,000  Level FlightAware ADS-B
Fri 06:02:45 AM 56.4500 31.3680 303° West 452 520 36,000  Level FlightAware ADS-B
Fri 06:03:46 AM 56.5090 31.2040 303° West 452 520 36,000  Level FlightAware ADS-B
Fri 06:04:22 AM 56.5430 31.1060 302° West 452 520 36,000  Level FlightAware ADS-B
Fri 06:05:10 AM 56.5900 30.9770 304° West 452 520 36,000  Level FlightAware ADS-B
Fri 06:05:48 AM 56.6270 30.8740 303° West 452 520 36,000  Level FlightAware ADS-B
Fri 06:06:36 AM 56.6730 30.7430 303° West 452 520 36,000  Level FlightAware ADS-B
Fri 06:07:13 AM 56.7090 30.6430 303° West 452 520 36,000  Level FlightAware ADS-B
Fri 06:07:59 AM 56.7530 30.5180 303° West 452 520 36,000  Level FlightAware ADS-B
Fri 06:08:33 AM 56.7860 30.4250 303° West 452 520 36,000  Level FlightAware ADS-B
Fri 06:09:23 AM 56.9620 30.0610 312° West 471 542 36,000  Level FlightAware ADS-B
Fri 06:09:58 AM 57.0020 29.9500 304° West 473 544 36,000  Level FlightAware ADS-B
Fri 06:10:43 AM 57.0580 29.7940 303° West 474 545 36,000  Level FlightAware ADS-B
Fri 06:11:22 AM 57.0930 29.6950 303° West 474 545 36,000  Level FlightAware ADS-B
Fri 06:12:03 AM 57.1550 29.5250 304° West 475 547 36,000  Level FlightAware ADS-B
Fri 06:12:38 AM 57.1930 29.4180 303° West 475 547 36,000  Level FlightAware ADS-B
Fri 06:13:23 AM 57.2490 29.2580 303° West 473 544 36,000  Level FlightAware ADS-B
Fri 06:14:03 AM 57.3010 29.1110 303° West 473 544 36,000  Level FlightAware ADS-B
Fri 06:14:38 AM 57.3430 28.9920 303° West 472 543 36,000  Level FlightAware ADS-B
Fri 06:16:48 AM 57.4940 28.5570 303° West 476 548 36,000  Level FlightAware ADS-B
Fri 06:17:28 AM 57.5440 28.4100 302° West 477 549 36,000  Level FlightAware ADS-B
Fri 06:18:13 AM 57.5950 28.2590 302° West 479 551 36,000  Level FlightAware ADS-B
Fri 06:18:53 AM 57.6430 28.1170 302° West 480 552 36,000  Level FlightAware ADS-B
Fri 06:19:38 AM 57.6960 27.9610 302° West 479 551 36,000  Level FlightAware ADS-B
Fri 06:20:18 AM 57.7410 27.8260 302° West 477 549 36,000  Level FlightAware ADS-B
Fri 06:20:53 AM 57.7840 27.6970 302° West 476 548 36,000  Level FlightAware ADS-B
Fri 06:21:38 AM 57.8370 27.5450 303° West 480 552 36,000  Level FlightAware ADS-B
Fri 06:22:18 AM 57.9030 27.4340 318° Northwest 484 557 36,000  Level FlightAware ADS-B
Fri 06:22:58 AM 57.9710 27.3190 318° Northwest 484 557 36,000  Level FlightAware ADS-B
Fri 06:23:38 AM 58.0370 27.2040 317° Northwest 484 557 36,000  Level FlightAware ADS-B
Fri 06:24:24 AM 58.1120 27.0740 318° Northwest 485 558 36,000  Level FlightAware ADS-B
Fri 06:25:04 AM 58.1780 26.9580 317° Northwest 485 558 36,000  Level FlightAware ADS-B
Fri 06:25:49 AM 58.2510 26.8300 317° Northwest 486 559 36,000  Level FlightAware ADS-B
Fri 06:26:29 AM 58.3180 26.7120 317° Northwest 488 562 36,000  Level FlightAware ADS-B
Fri 06:27:14 AM 58.3920 26.5800 317° Northwest 487 560 36,000  Level FlightAware ADS-B
Fri 06:27:50 AM 58.4510 26.4750 317° Northwest 485 558 36,000  Level FlightAware ADS-B
Fri 06:28:35 AM 58.5190 26.3540 317° Northwest 483 556 36,000  Level FlightAware ADS-B
Fri 06:29:15 AM 58.5880 26.2290 317° Northwest 481 554 36,000  Level FlightAware ADS-B
Fri 06:29:51 AM 58.6470 26.1220 317° Northwest 482 555 36,000  Level FlightAware ADS-B
Fri 06:30:32 AM 58.7110 26.0060 317° Northwest 483 556 36,000  Level FlightAware ADS-B
Fri 06:31:12 AM 58.7770 25.8830 316° Northwest 483 556 36,000  Level FlightAware ADS-B
Fri 06:31:57 AM 58.8460 25.7560 316° Northwest 483 556 36,000  Level FlightAware ADS-B
Fri 06:32:42 AM 58.9230 25.6140 316° Northwest 483 556 36,000  Level FlightAware ADS-B
Fri 06:33:22 AM 58.9900 25.5020 319° Northwest 484 557 36,000  Level FlightAware ADS-B
Fri 06:34:02 AM 59.0610 25.3940 322° Northwest 485 558 36,000  Level FlightAware ADS-B
Fri 06:34:42 AM 59.1300 25.2850 321° Northwest 483 556 36,000  Level FlightAware ADS-B
Fri 06:35:22 AM 59.2000 25.1750 321° Northwest 484 557 36,000  Level FlightAware ADS-B
Fri 06:36:04 AM 59.2730 25.0600 321° Northwest 485 558 36,000  Level FlightAware ADS-B
Fri 06:36:39 AM 59.3330 24.9640 321° Northwest 487 560 36,000  Level FlightAware ADS-B
Fri 06:37:22 AM 59.4120 24.8460 323° Northwest 490 564 36,000  Level FlightAware ADS-B
Fri 06:38:02 AM 59.4910 24.7600 331° Northwest 492 566 36,000  Level FlightAware ADS-B
Fri 06:38:46 AM 59.5810 24.6720 334° Northwest 490 564 36,000  Level FlightAware ADS-B
Fri 06:39:26 AM 59.6580 24.5940 333° Northwest 489 563 36,000  Level FlightAware ADS-B
Fri 06:40:10 AM 59.7470 24.5010 332° Northwest 489 563 36,000  Level FlightAware ADS-B
Fri 06:40:52 AM 59.8140 24.3680 315° West 489 563 36,000  Level FlightAware ADS-B
Fri 06:41:32 AM 59.8740 24.2360 312° West 490 564 36,000  Level FlightAware ADS-B
Fri 06:42:10 AM 59.9320 24.1060 312° West 490 564 36,000  Level FlightAware ADS-B
Fri 06:42:50 AM 59.9920 23.9690 311° West 489 563 36,000  Level FlightAware ADS-B
Fri 06:43:31 AM 60.0520 23.8320 311° West 490 564 36,000  Level FlightAware ADS-B
Fri 06:44:14 AM 60.1150 23.6870 311° West 489 563 36,000  Level FlightAware ADS-B
Fri 06:44:58 AM 60.1800 23.5360 311° West 489 563 36,000  Level FlightAware ADS-B
Fri 06:45:38 AM 60.2400 23.3980 311° West 489 563 36,000  Level FlightAware ADS-B
Fri 06:46:22 AM 60.3050 23.2460 311° West 490 564 36,000  Level FlightAware ADS-B
Fri 06:47:02 AM 60.3630 23.1090 311° West 489 563 36,000  Level FlightAware ADS-B
Fri 06:47:44 AM 60.4260 22.9600 311° West 489 563 36,000  Level FlightAware ADS-B
Fri 06:48:26 AM 60.4870 22.8150 311° West 489 563 36,000  Level FlightAware ADS-B
Fri 06:49:08 AM 60.5450 22.6750 310° West 490 564 36,000  Level FlightAware ADS-B
Fri 06:49:50 AM 60.6090 22.5210 310° West 489 563 36,000  Level FlightAware ADS-B
Fri 06:50:26 AM 60.6570 22.4030 310° West 489 563 36,000  Level FlightAware ADS-B
Fri 06:51:08 AM 60.7220 22.2450 310° West 489 563 36,000  Level FlightAware ADS-B
Fri 06:51:50 AM 60.7820 22.0970 310° West 489 563 36,000  Level FlightAware ADS-B
Fri 06:52:30 AM 60.8390 21.9560 310° West 491 565 36,000  Level FlightAware ADS-B
Fri 06:53:14 AM 60.9030 21.7960 309° West 491 565 36,000  Level FlightAware ADS-B
Fri 06:53:55 AM 60.9610 21.6500 309° West 490 564 36,000  Level FlightAware ADS-B
Fri 06:54:38 AM 61.0230 21.4940 309° West 489 563 36,000  Level FlightAware ADS-B
Fri 06:55:18 AM 61.0800 21.3490 309° West 489 563 36,000  Level FlightAware ADS-B
Fri 06:55:56 AM 61.1340 21.2100 309° West 490 564 36,000  Level FlightAware ADS-B
Fri 06:56:36 AM 61.1910 21.0650 309° West 491 565 36,000  Level FlightAware ADS-B
Fri 06:57:20 AM 61.2530 20.9030 309° West 492 566 36,000  Level FlightAware ADS-B
Fri 06:57:58 AM 61.3070 20.7630 309° West 493 567 36,000  Level FlightAware ADS-B
Fri 06:58:44 AM 61.3710 20.5940 308° West 494 568 36,000  Level FlightAware ADS-B
Fri 06:59:22 AM 61.4260 20.4500 309° West 494 568 36,000  Level FlightAware ADS-B
Fri 07:00:29 AM 61.5100 20.2270 308° West 495 570 36,000  Level FlightAware ADS-B
Fri 07:01:04 AM 61.5670 20.0720 308° West 496 571 36,000  Level FlightAware ADS-B
Fri 07:01:55 AM 61.6410 19.8730 308° West 496 571 36,000  Level FlightAware ADS-B
Fri 07:02:37 AM 61.7000 19.7120 308° West 494 568 36,000  Level FlightAware ADS-B
Fri 07:03:19 AM 61.7580 19.5530 308° West 496 571 36,000  Level FlightAware ADS-B
Fri 07:03:59 AM 61.8210 19.4110 313° West 502 578 36,000  Level FlightAware ADS-B
Fri 07:05:09 AM 61.9370 19.1690 316° Northwest 499 574 36,000  Level FlightAware ADS-B
Fri 07:05:51 AM 62.0060 19.0250 316° Northwest 499 574 36,000  Level FlightAware ADS-B
Fri 07:06:32 AM 62.0710 18.8850 315° West 502 578 36,000  Level FlightAware ADS-B
Fri 07:07:08 AM 62.1300 18.7590 315° West 501 577 36,000  Level FlightAware ADS-B
Fri 07:07:52 AM 62.2010 18.6050 315° West 500 575 36,000  Level FlightAware ADS-B
Fri 07:08:28 AM 62.2580 18.4820 315° West 503 579 36,000  Level FlightAware ADS-B
Fri 07:09:10 AM 62.3280 18.3290 315° West 505 581 36,000  Level FlightAware ADS-B
Fri 07:09:46 AM 62.3860 18.2010 314° West 507 583 36,000  Level FlightAware ADS-B
Fri 07:10:25 AM 62.4510 18.0570 314° West 509 586 36,000  Level FlightAware ADS-B
Fri 07:10:55 AM 62.5010 17.9470 315° West 509 586 36,000  Level FlightAware ADS-B
Fri 07:11:40 AM 62.5740 17.7820 314° West 509 586 36,000  Level FlightAware ADS-B
Fri 07:12:30 AM 62.6560 17.5990 314° West 508 585 36,000  Level FlightAware ADS-B
Fri 07:13:10 AM 62.7200 17.4510 313° West 501 577 36,000  Level FlightAware ADS-B
Fri 07:13:50 AM 62.7850 17.3030 314° West 501 577 36,000  Level FlightAware ADS-B
Fri 07:14:31 AM 62.8490 17.1550 313° West 498 573 36,000  Level FlightAware ADS-B
Fri 07:15:06 AM 62.9050 17.0260 314° West 496 571 36,000  Level FlightAware ADS-B
Fri 07:15:51 AM 62.9770 16.8590 314° West 500 575 36,000  Level FlightAware ADS-B
Fri 07:16:31 AM 63.0400 16.7100 313° West 500 575 36,000  Level FlightAware ADS-B
Fri 07:17:06 AM 63.0950 16.5800 313° West 498 573 36,000  Level FlightAware ADS-B
Fri 07:17:51 AM 63.1650 16.4130 313° West 496 571 36,000  Level FlightAware ADS-B
Fri 07:18:31 AM 63.2260 16.2650 312° West 487 560 36,000  Level FlightAware ADS-B
Fri 07:19:11 AM 63.2870 16.1180 313° West 485 558 36,000  Level FlightAware ADS-B
Fri 07:19:51 AM 63.3480 15.9710 313° West 485 558 36,000  Level FlightAware ADS-B
Fri 07:20:36 AM 63.4180 15.7990 312° West 485 558 36,000  Level FlightAware ADS-B
Fri 07:21:16 AM 63.4760 15.6540 312° West 484 557 36,000  Level FlightAware ADS-B
Fri 07:21:56 AM 63.5370 15.5020 312° West 486 559 36,000  Level FlightAware ADS-B
Fri 07:22:36 AM 63.5990 15.3470 312° West 486 559 36,000  Level FlightAware ADS-B
Fri 07:23:16 AM 63.6600 15.1940 312° West 488 562 36,000  Level FlightAware ADS-B
Fri 07:23:51 AM 63.7130 15.0590 312° West 488 562 36,000  Level FlightAware ADS-B
Fri 07:24:36 AM 63.7810 14.8860 312° West 491 565 36,000  Level FlightAware ADS-B
Fri 07:25:16 AM 63.8410 14.7320 312° West 490 564 36,000  Level FlightAware ADS-B
Fri 07:26:02 AM 63.9070 14.5600 311° West 488 562 36,000  Level FlightAware ADS-B
Fri 07:26:42 AM 63.9660 14.4050 311° West 488 562 36,000  Level FlightAware ADS-B
Fri 07:27:21 AM 64.0240 14.2520 311° West 491 565 36,000  Level FlightAware ADS-B
Fri 07:28:06 AM 64.0870 14.0850 311° West 492 566 36,000  Level FlightAware ADS-B
Fri 07:28:43 AM 64.1470 13.9260 311° West 495 570 36,000  Level FlightAware ADS-B
Fri 07:29:22 AM 64.2040 13.7730 311° West 497 572 36,000  Level FlightAware ADS-B
Fri 07:30:26 AM 64.3000 13.5130 310° West 499 574 36,000  Level FlightAware ADS-B
Fri 07:31:10 AM 64.3640 13.3360 310° West 496 571 36,000  Level FlightAware ADS-B
Fri 07:31:48 AM 64.4190 13.1860 310° West 492 566 36,000  Level FlightAware ADS-B
Fri 07:32:32 AM 64.4820 13.0080 309° West 489 563 36,000  Level FlightAware ADS-B
Fri 07:33:14 AM 64.5430 12.8390 310° West 490 564 36,000  Level FlightAware ADS-B
Fri 07:33:54 AM 64.6000 12.6750 309° West 490 564 36,000  Level FlightAware ADS-B
Fri 07:34:38 AM 64.6630 12.4960 309° West 489 563 36,000  Level FlightAware ADS-B
Fri 07:35:18 AM 64.7210 12.3310 310° West 492 566 36,000 77 Level FlightAware ADS-B
Fri 07:35:56 AM 64.7750 12.1740 309° West 494 568 36,100 231 Climbing FlightAware ADS-B
Fri 07:36:36 AM 64.8330 12.0050 309° West 502 578 36,300 494 Climbing FlightAware ADS-B
Fri 07:37:21 AM 64.8970 11.8180 309° West 503 579 36,800 538 Climbing FlightAware ADS-B
Fri 07:37:54 AM 64.9470 11.6710 309° West 506 582 37,000 493 Climbing FlightAware ADS-B
Fri 07:38:34 AM 65.0030 11.5020 308° West 508 585 37,400 375 Climbing FlightAware ADS-B
Fri 07:39:14 AM 65.0620 11.3250 308° West 514 592 37,500 349 Climbing FlightAware ADS-B
Fri 07:40:00 AM 65.1290 11.1220 308° West 512 589 37,900 349 Climbing FlightAware ADS-B
Fri 07:40:40 AM 65.1870 10.9460 308° West 511 588 38,000 71 Climbing FlightAware ADS-B
Fri 07:41:24 AM 65.2500 10.7520 308° West 507 583 38,000  Level FlightAware ADS-B
Fri 07:42:04 AM 65.3060 10.5760 307° West 505 581 38,000  Level FlightAware ADS-B
Fri 07:42:42 AM 65.3600 10.4080 308° West 505 581 38,000  Level FlightAware ADS-B
Fri 07:43:18 AM 65.4110 10.2480 307° West 506 582 38,000  Level FlightAware ADS-B
Fri 07:44:06 AM 65.4800 10.0290 307° West 504 580 38,000  Level FlightAware ADS-B
Fri 07:44:48 AM 65.5370 9.8450 307° West 502 578 38,000  Level FlightAware ADS-B
Fri 07:45:35 AM 65.5920 9.6640 306° West 502 578 38,000  Level FlightAware ADS-B
Fri 07:46:18 AM 65.6610 9.4410 307° West 501 577 38,000  Level FlightAware ADS-B
Fri 07:47:03 AM 65.7150 9.2630 306° West 502 578 38,000  Level FlightAware ADS-B
Fri 07:47:42 AM 65.7760 9.0600 306° West 503 579 38,000  Level FlightAware ADS-B
Fri 07:48:16 AM 65.8210 8.9120 307° West 502 578 38,000  Level FlightAware ADS-B
Fri 07:49:08 AM 65.8800 8.7060 305° West 502 578 38,000  Level FlightAware ADS-B
Fri 07:49:44 AM 65.9200 8.5640 305° West 502 578 38,000  Level FlightAware ADS-B
Fri 07:50:18 AM 65.9590 8.4290 305° West 502 578 38,000  Level FlightAware ADS-B
Fri 07:51:06 AM 66.0130 8.2380 305° West 502 578 38,000  Level FlightAware ADS-B
Fri 07:51:43 AM 66.0550 8.0910 305° West 502 578 38,000  Level FlightAware ADS-B
Fri 07:52:19 AM 66.0960 7.9470 305° West 502 578 38,000  Level FlightAware ADS-B
Fri 07:53:07 AM 66.1500 7.7550 305° West 502 578 38,000  Level FlightAware ADS-B
Fri 07:53:44 AM 66.1920 7.6070 305° West 502 578 38,000  Level FlightAware ADS-B
Fri 07:54:21 AM 66.2340 7.4590 305° West 502 578 38,000  Level FlightAware ADS-B
Fri 07:55:07 AM 66.2860 7.2740 305° West 502 578 38,000  Level FlightAware ADS-B
Fri 07:55:44 AM 66.3280 7.1250 305° West 502 578 38,000  Level FlightAware ADS-B
Fri 07:56:44 AM 66.3960 6.8830 305° West 502 578 38,000  Level FlightAware ADS-B
Fri 07:57:20 AM 66.4360 6.7370 304° West 502 578 38,000  Level FlightAware ADS-B
Fri 07:57:57 AM 66.4780 6.5880 305° West 502 578 38,000  Level FlightAware ADS-B
Fri 08:00:00 AM 66.5236 5.9754 281° West  Level Estimated
Fri 08:01:00 AM 66.5450 5.6757 280° West  Level Estimated
Fri 08:02:00 AM 66.5658 5.3756 280° West  Level Estimated
Fri 08:03:00 AM 66.5860 5.0749 280° West  Level Estimated
Fri 08:04:00 AM 66.6057 4.7738 279° West  Level Estimated
Fri 08:05:00 AM 66.6248 4.4722 279° West  Level Estimated
Fri 08:06:00 AM 66.6433 4.1701 279° West  Level Estimated
Fri 08:07:00 AM 66.6612 3.8676 279° West  Level Estimated
Fri 08:08:00 AM 66.6785 3.5647 278° West  Level Estimated
Fri 08:09:00 AM 66.6953 3.2613 278° West  Level Estimated
Fri 08:10:00 AM 66.7115 2.9576 278° West  Level Estimated
Fri 08:11:00 AM 66.7271 2.6534 278° West  Level Estimated
Fri 08:12:00 AM 66.7421 2.3489 277° West  Level Estimated
Fri 08:13:00 AM 66.7565 2.0440 277° West  Level Estimated
Fri 08:14:00 AM 66.7703 1.7387 277° West  Level Estimated
Fri 08:15:00 AM 66.7835 1.4331 276° West  Level Estimated
Fri 08:16:00 AM 66.7962 1.1272 276° West  Level Estimated
Fri 08:17:00 AM 66.8082 0.8210 276° West  Level Estimated
Fri 08:18:00 AM 66.8197 0.5145 276° West  Level Estimated
Fri 08:19:00 AM 66.8305 0.2077 275° West  Level Estimated
Fri 08:20:00 AM 66.8408 -0.0993 275° West  Level Estimated
Fri 08:21:00 AM 66.8505 -0.4066 275° West  Level Estimated
Fri 08:22:00 AM 66.8596 -0.7142 274° West  Level Estimated
Fri 08:23:00 AM 66.8680 -1.0219 274° West  Level Estimated
Fri 08:24:00 AM 66.8759 -1.3299 274° West  Level Estimated
Fri 08:25:00 AM 66.8832 -1.6380 274° West  Level Estimated
Fri 08:26:00 AM 66.8899 -1.9463 273° West  Level Estimated
Fri 08:27:00 AM 66.8960 -2.2548 273° West  Level Estimated
Fri 08:28:00 AM 66.9014 -2.5635 273° West  Level Estimated
Fri 08:29:00 AM 66.9063 -2.8722 272° West  Level Estimated
Fri 08:30:00 AM 66.9106 -3.1811 272° West  Level Estimated
Fri 08:31:00 AM 66.9143 -3.4901 272° West  Level Estimated
Fri 08:32:00 AM 66.9174 -3.7992 272° West  Level Estimated
Fri 08:33:00 AM 66.9198 -4.1083 271° West  Level Estimated
Fri 08:34:00 AM 66.9217 -4.4175 271° West  Level Estimated
Fri 08:35:00 AM 66.9230 -4.7267 271° West  Level Estimated
Fri 08:36:00 AM 66.9237 -5.0360 270° West  Level Estimated
Fri 08:37:00 AM 66.9237 -5.3453 270° West  Level Estimated
Fri 08:38:00 AM 66.9232 -5.6545 270° West  Level Estimated
Fri 08:39:00 AM 66.9221 -5.9638 270° West  Level Estimated
Fri 08:40:00 AM 66.9203 -6.2730 269° West  Level Estimated
Fri 08:41:00 AM 66.9180 -6.5821 269° West  Level Estimated
Fri 08:42:00 AM 66.9151 -6.8912 269° West  Level Estimated
Fri 08:43:00 AM 66.9115 -7.2002 268° West  Level Estimated
Fri 08:44:00 AM 66.9074 -7.5091 268° West  Level Estimated
Fri 08:45:00 AM 66.9027 -7.8179 268° West  Level Estimated
Fri 08:46:00 AM 66.8973 -8.1266 268° West  Level Estimated
Fri 08:47:00 AM 66.8914 -8.4351 267° West  Level Estimated
Fri 08:48:00 AM 66.8848 -8.7435 267° West  Level Estimated
Fri 08:49:00 AM 66.8777 -9.0517 267° West  Level Estimated
Fri 08:50:00 AM 66.8700 -9.3597 266° West  Level Estimated
Fri 08:51:00 AM 66.8616 -9.6675 266° West  Level Estimated
Fri 08:52:00 AM 66.8527 -9.9751 266° West  Level Estimated
Fri 08:53:00 AM 66.8432 -10.2824 266° West  Level Estimated
Fri 08:54:00 AM 66.8331 -10.5896 265° West  Level Estimated
Fri 08:55:00 AM 66.8223 -10.8964 265° West  Level Estimated
Fri 08:56:00 AM 66.8110 -11.2030 265° West  Level Estimated
Fri 08:57:00 AM 66.7991 -11.5093 265° West  Level Estimated
Fri 08:58:00 AM 66.7866 -11.8152 264° West  Level Estimated
Fri 08:59:00 AM 66.7735 -12.1209 264° West  Level Estimated
Fri 09:00:00 AM 66.7598 -12.4262 264° West  Level Estimated
Fri 09:01:00 AM 66.7456 -12.7312 263° West  Level Estimated
Fri 09:02:00 AM 66.7307 -13.0358 263° West  Level Estimated
Fri 09:03:00 AM 66.7153 -13.3401 263° West  Level Estimated
Fri 09:04:00 AM 66.6992 -13.6439 263° West  Level Estimated
Fri 09:05:00 AM 66.6826 -13.9474 262° West  Level Estimated
Fri 09:06:00 AM 66.6654 -14.2504 262° West  Level Estimated
Fri 09:07:00 AM 66.6477 -14.5531 262° West  Level Estimated
Fri 09:08:00 AM 66.6293 -14.8552 261° West  Level Estimated
Fri 09:09:00 AM 66.6104 -15.1569 261° West  Level Estimated
Fri 09:10:00 AM 66.5908 -15.4582 261° West  Level Estimated
Fri 09:11:00 AM 66.5707 -15.7590 261° West  Level Estimated
Fri 09:12:00 AM 66.5501 -16.0592 260° West  Level Estimated
Fri 09:13:00 AM 66.5288 -16.3590 260° West  Level Estimated
Fri 09:14:00 AM 66.5070 -16.6583 260° West  Level Estimated
Fri 09:15:00 AM 66.4846 -16.9570 259° West  Level Estimated
Fri 09:16:00 AM 66.4617 -17.2552 259° West  Level Estimated
Fri 09:17:00 AM 66.4382 -17.5528 259° West  Level Estimated
Fri 09:18:00 AM 66.4141 -17.8498 259° West  Level Estimated
Fri 09:19:00 AM 66.3894 -18.1463 258° West  Level Estimated
Fri 09:20:00 AM 66.3642 -18.4422 258° West  Level Estimated
Fri 09:21:00 AM 66.3385 -18.7375 258° West  Level Estimated
Fri 09:22:00 AM 66.3121 -19.0322 258° West  Level Estimated
Fri 09:23:00 AM 66.2852 -19.3262 257° West  Level Estimated
Fri 09:24:00 AM 66.2578 -19.6196 257° West  Level Estimated
Fri 09:25:00 AM 66.2298 -19.9124 257° West  Level Estimated
Fri 09:26:00 AM 66.2013 -20.2045 257° West  Level Estimated
Fri 09:27:00 AM 66.1722 -20.4960 256° West  Level Estimated
Fri 09:28:00 AM 66.1425 -20.7868 256° West  Level Estimated
Fri 09:29:00 AM 66.1124 -21.0769 256° West  Level Estimated
Fri 09:30:00 AM 66.0816 -21.3663 255° West  Level Estimated
Fri 09:31:00 AM 66.0504 -21.6549 255° West  Level Estimated
Fri 09:32:00 AM 66.0185 -21.9429 255° West  Level Estimated
Fri 09:33:00 AM 65.9862 -22.2302 255° West  Level Estimated
Fri 09:34:00 AM 65.9533 -22.5167 254° West  Level Estimated
Fri 09:35:00 AM 65.9199 -22.8025 254° West  Level Estimated
Fri 09:36:00 AM 65.8860 -23.0875 254° West  Level Estimated
Fri 09:37:00 AM 65.8515 -23.3718 254° West  Level Estimated
Fri 09:38:00 AM 65.8165 -23.6553 253° West  Level Estimated
Fri 09:39:00 AM 65.7810 -23.9380 253° West  Level Estimated
Fri 09:40:00 AM 65.7450 -24.2199 253° West  Level Estimated
Fri 09:41:00 AM 65.7084 -24.5011 253° West  Level Estimated
Fri 09:42:00 AM 65.6714 -24.7815 252° West  Level Estimated
Fri 09:43:00 AM 65.6338 -25.0610 252° West  Level Estimated
Fri 09:44:00 AM 65.5957 -25.3397 252° West  Level Estimated
Fri 09:45:00 AM 65.5571 -25.6176 252° West  Level Estimated
Fri 09:46:00 AM 65.5180 -25.8947 251° West  Level Estimated
Fri 09:47:00 AM 65.4784 -26.1710 251° West  Level Estimated
Fri 09:48:00 AM 65.4383 -26.4464 251° West  Level Estimated
Fri 09:49:00 AM 65.3977 -26.7209 251° West  Level Estimated
Fri 09:50:00 AM 65.3566 -26.9946 250° West  Level Estimated
Fri 09:51:00 AM 65.3149 -27.2675 250° West  Level Estimated
Fri 09:52:00 AM 65.2729 -27.5394 250° West  Level Estimated
Fri 09:53:00 AM 65.2303 -27.8106 250° West  Level Estimated
Fri 09:54:00 AM 65.1872 -28.0808 249° West  Level Estimated
Fri 09:55:00 AM 65.1437 -28.3501 249° West  Level Estimated
Fri 09:56:00 AM 65.0996 -28.6186 249° West  Level Estimated
Fri 09:57:00 AM 65.0551 -28.8862 249° West  Level Estimated
Fri 09:58:00 AM 65.0101 -29.1528 248° West  Level Estimated
Fri 09:59:00 AM 64.9647 -29.4186 248° West  Level Estimated
Fri 10:00:00 AM 64.9187 -29.6835 248° West  Level Estimated
Fri 10:01:00 AM 64.8723 -29.9474 248° West  Level Estimated
Fri 10:02:00 AM 64.8255 -30.2104 247° West  Level Estimated
Fri 10:03:00 AM 64.7781 -30.4726 247° West  Level Estimated
Fri 10:04:00 AM 64.7303 -30.7338 247° West  Level Estimated
Fri 10:05:00 AM 64.6821 -30.9940 247° West  Level Estimated
Fri 10:06:00 AM 64.6334 -31.2534 246° West  Level Estimated
Fri 10:07:00 AM 64.5842 -31.5118 246° West  Level Estimated
Fri 10:08:00 AM 64.5346 -31.7693 246° West  Level Estimated
Fri 10:09:00 AM 64.4846 -32.0258 246° West  Level Estimated
Fri 10:10:00 AM 64.4341 -32.2814 245° Southwest  Level Estimated
Fri 10:11:00 AM 64.3831 -32.5360 245° Southwest  Level Estimated
Fri 10:12:00 AM 64.3318 -32.7897 245° Southwest  Level Estimated
Fri 10:13:00 AM 64.2799 -33.0425 245° Southwest  Level Estimated
Fri 10:14:00 AM 64.2249 -33.3077 245° Southwest  Level Estimated
Fri 10:15:00 AM 64.1693 -33.5719 244° Southwest  Level Estimated
Fri 10:16:00 AM 64.1133 -33.8351 244° Southwest  Level Estimated
Fri 10:17:00 AM 64.0568 -34.0971 244° Southwest  Level Estimated
Fri 10:18:00 AM 63.9999 -34.3581 244° Southwest  Level Estimated
Fri 10:19:00 AM 63.9425 -34.6181 243° Southwest  Level Estimated
Fri 10:20:00 AM 63.8846 -34.8769 243° Southwest  Level Estimated
Fri 10:20:42 AM 67.9360 -45.9040 243° Southwest 503 579 38,000  Level FlightAware ADS-B
Fri 10:21:00 AM 63.8262 -35.1348 243° Southwest  Level Estimated
Fri 10:21:40 AM 67.8700 -46.2200 241° Southwest 504 580 38,000  Level FlightAware ADS-B
Fri 10:22:17 AM 67.8330 -46.3880 240° Southwest 504 580 38,000  Level FlightAware ADS-B
Fri 10:23:05 AM 67.7850 -46.6060 240° Southwest 504 580 38,000  Level FlightAware ADS-B
Fri 10:23:48 AM 67.7220 -46.9100 241° Southwest 504 580 38,000  Level FlightAware ADS-B
Fri 10:24:22 AM 67.6830 -47.0900 240° Southwest 504 580 38,000  Level FlightAware ADS-B
Fri 10:25:22 AM 67.6130 -47.4050 240° Southwest 502 578 38,000  Level FlightAware ADS-B
Fri 10:26:08 AM 67.5590 -47.6480 240° Southwest 504 580 38,000  Level FlightAware ADS-B
Fri 10:26:38 AM 67.5230 -47.8040 239° Southwest 505 581 38,000  Level FlightAware ADS-B
Fri 10:27:24 AM 67.4700 -48.0380 239° Southwest 506 582 38,000  Level FlightAware ADS-B
Fri 10:28:04 AM 67.4200 -48.2550 239° Southwest 505 581 38,000  Level FlightAware ADS-B
Fri 10:28:40 AM 67.3770 -48.4430 239° Southwest 505 581 38,000  Level FlightAware ADS-B
Fri 10:29:24 AM 67.3240 -48.6670 239° Southwest 504 580 38,000  Level FlightAware ADS-B
Fri 10:30:04 AM 67.2760 -48.8710 239° Southwest 503 579 38,000  Level FlightAware ADS-B
Fri 10:30:44 AM 67.2270 -49.0760 238° Southwest 503 579 38,000  Level FlightAware ADS-B
Fri 10:31:28 AM 67.1720 -49.3010 238° Southwest 504 580 38,000  Level FlightAware ADS-B
Fri 10:32:10 AM 67.1210 -49.5120 238° Southwest 504 580 38,000  Level FlightAware ADS-B
Fri 10:32:52 AM 67.0680 -49.7250 238° Southwest 505 581 38,000  Level FlightAware ADS-B
Fri 10:33:30 AM 67.0210 -49.9160 238° Southwest 505 581 38,000  Level FlightAware ADS-B
Fri 10:34:06 AM 66.9730 -50.0880 235° Southwest 505 581 38,000  Level FlightAware ADS-B
Fri 10:34:52 AM 66.9050 -50.2980 231° Southwest 506 582 38,000  Level FlightAware ADS-B
Fri 10:35:28 AM 66.8510 -50.4680 231° Southwest 505 581 38,000  Level FlightAware ADS-B
Fri 10:36:08 AM 66.7930 -50.6490 231° Southwest 504 580 38,000  Level FlightAware ADS-B
Fri 10:36:52 AM 66.7280 -50.8490 231° Southwest 504 580 38,000  Level FlightAware ADS-B
Fri 10:37:30 AM 66.6730 -51.0180 231° Southwest 505 581 38,000  Level FlightAware ADS-B
Fri 10:38:10 AM 66.6110 -51.2040 230° Southwest 505 581 38,000  Level FlightAware ADS-B
Fri 10:38:56 AM 66.5420 -51.4100 230° Southwest 504 580 38,000  Level FlightAware ADS-B
Fri 10:39:38 AM 66.4810 -51.5930 230° Southwest 503 579 38,000  Level FlightAware ADS-B
Fri 10:40:14 AM 66.4270 -51.7530 230° Southwest 502 578 38,000  Level FlightAware ADS-B
Fri 10:40:56 AM 66.3630 -51.9390 229° Southwest 505 581 38,000  Level FlightAware ADS-B
Fri 10:41:38 AM 66.2980 -52.1260 229° Southwest 506 582 38,000  Level FlightAware ADS-B
Fri 10:42:15 AM 66.2430 -52.2860 230° Southwest 509 586 38,000  Level FlightAware ADS-B
Fri 10:42:56 AM 66.1810 -52.4620 229° Southwest 508 585 38,000  Level FlightAware ADS-B
Fri 10:43:47 AM 66.1100 -52.6610 229° Southwest 508 585 38,000  Level FlightAware ADS-B
Fri 10:44:48 AM 66.0280 -52.8850 228° Southwest 508 585 38,000  Level FlightAware ADS-B
Fri 10:45:25 AM 65.9790 -53.0200 228° Southwest 508 585 38,000  Level FlightAware ADS-B
Fri 10:46:02 AM 65.9290 -53.1540 228° Southwest 508 585 38,000  Level FlightAware ADS-B
Fri 10:46:50 AM 65.8650 -53.3290 228° Southwest 508 585 38,000  Level FlightAware ADS-B
Fri 10:47:37 AM 65.8020 -53.4990 228° Southwest 508 585 38,000  Level FlightAware ADS-B
Fri 10:48:26 AM 65.7360 -53.6760 228° Southwest 508 585 38,000  Level FlightAware ADS-B
Fri 10:49:02 AM 65.6880 -53.8060 228° Southwest 508 585 38,000  Level FlightAware ADS-B
Fri 10:49:37 AM 65.6420 -53.9320 229° Southwest 508 585 38,000  Level FlightAware ADS-B
Fri 10:50:37 AM 65.5610 -54.1480 228° Southwest 508 585 38,000  Level FlightAware ADS-B
Fri 10:51:15 AM 65.5110 -54.2840 228° Southwest 508 585 38,000  Level FlightAware ADS-B
Fri 10:51:52 AM 65.4610 -54.4160 228° Southwest 508 585 38,000  Level FlightAware ADS-B
Fri 10:52:38 AM 65.4000 -54.5810 228° Southwest 508 585 38,000  Level FlightAware ADS-B
Fri 10:53:41 AM 65.2000 -55.1000 228° Southwest 510 587 38,000  Level Gander Center
Fri 10:54:19 AM 65.1333 -55.2333 220° Southwest 520 598 38,000  Level Gander Center
Fri 10:55:19 AM 65.0500 -55.5000 234° Southwest 510 587 38,000  Level Gander Center
Fri 10:56:19 AM 64.9333 -55.7167 218° Southwest 510 587 38,000  Level Gander Center
Fri 10:57:19 AM 64.8500 -55.9667 232° Southwest 510 587 38,000  Level Gander Center
Fri 10:59:20 AM 64.6500 -56.3500 219° Southwest 520 598 38,000  Level Montreal Center
Fri 11:00:20 AM 64.5500 -56.5833 225° Southwest 580 667 38,000  Level Montreal Center
Fri 11:01:20 AM 64.4500 -56.8167 225° Southwest 510 587 38,000  Level Montreal Center
Fri 11:02:20 AM 64.3500 -57.0500 225° Southwest 500 575 38,000  Level Montreal Center
Fri 11:04:19 AM 64.1500 -57.5000 225° Southwest 450 518 38,000  Level Montreal Center
Fri 11:05:19 AM 64.0500 -57.7167 224° Southwest 500 575 38,000  Level Montreal Center
Fri 11:06:19 AM 63.9500 -57.9333 224° Southwest 500 575 38,000  Level Montreal Center
Fri 11:07:19 AM 63.8500 -58.1500 224° Southwest 500 575 38,000  Level Montreal Center
Fri 11:08:19 AM 63.7500 -58.3833 226° Southwest 500 575 38,000  Level Montreal Center
Fri 11:09:19 AM 63.6500 -58.6000 224° Southwest 500 575 38,000  Level Montreal Center
Fri 11:10:19 AM 63.5500 -58.8000 222° Southwest 500 575 38,000  Level Montreal Center
Fri 11:11:19 AM 63.4500 -59.0167 224° Southwest 500 575 38,000  Level Montreal Center
Fri 11:12:19 AM 63.3500 -59.2333 224° Southwest 500 575 38,000  Level Montreal Center
Fri 11:13:19 AM 63.2500 -59.4333 222° Southwest 500 575 38,000  Level Montreal Center
Fri 11:14:19 AM 63.1333 -59.6500 220° Southwest 490 564 38,000  Level Montreal Center
Fri 11:15:19 AM 63.0333 -59.8667 225° Southwest 500 575 38,000  Level Montreal Center
Fri 11:16:19 AM 62.9333 -60.0667 222° Southwest 500 575 38,000  Level Montreal Center
Fri 11:17:19 AM 62.8167 -60.2333 213° Southwest 500 575 38,000  Level Montreal Center
Fri 11:18:19 AM 62.7167 -60.4000 217° Southwest 510 587 38,000  Level Montreal Center
Fri 11:19:19 AM 62.6000 -60.5667 213° Southwest 510 587 38,000  Level Montreal Center
Fri 11:20:19 AM 62.5000 -60.7667 223° Southwest 500 575 38,000  Level Montreal Center
Fri 11:21:19 AM 62.3833 -60.9500 216° Southwest 490 564 38,000  Level Montreal Center
Fri 11:22:19 AM 62.2833 -61.1000 215° Southwest 490 564 38,000  Level Montreal Center
Fri 11:23:19 AM 62.1667 -61.3000 219° Southwest 510 587 38,000  Level Montreal Center
Fri 11:25:19 AM 61.9500 -61.6333 216° Southwest 480 552 38,000  Level Montreal Center
Fri 11:26:19 AM 61.8500 -61.7833 215° Southwest 480 552 38,000  Level Montreal Center
Fri 11:27:19 AM 61.7500 -61.9667 221° Southwest 490 564 38,000  Level Montreal Center
Fri 11:28:19 AM 61.6167 -62.1333 211° Southwest 480 552 38,000  Level Montreal Center
Fri 11:29:19 AM 61.5167 -62.2833 216° Southwest 480 552 38,000  Level Montreal Center
Fri 11:30:19 AM 61.4167 -62.4333 216° Southwest 480 552 38,000  Level Montreal Center
Fri 11:31:19 AM 61.3000 -62.6333 219° Southwest 480 552 38,000  Level Montreal Center
Fri 11:32:19 AM 61.1833 -62.7833 212° Southwest 480 552 38,000  Level Montreal Center
Fri 11:33:19 AM 61.0833 -62.9333 216° Southwest 480 552 38,000  Level Montreal Center
Fri 11:34:19 AM 60.9667 -63.1167 217° Southwest 480 552 38,000 50 Level Montreal Center
Fri 11:35:19 AM 60.8667 -63.2667 216° Southwest 470 541 38,100 400 Climbing Montreal Center
Fri 11:36:19 AM 60.7667 -63.4333 219° Southwest 480 552 38,800 600 Climbing Montreal Center
Fri 11:37:19 AM 60.6333 -63.5833 209° Southwest 480 552 39,300 450 Climbing Montreal Center
Fri 11:38:19 AM 60.5333 -63.7333 216° Southwest 480 552 39,700 350 Climbing Montreal Center
Fri 11:39:19 AM 60.4167 -63.8833 212° Southwest 490 564 40,000 150 Climbing Montreal Center
Fri 11:40:19 AM 60.3000 -64.0500 215° Southwest 490 564 40,000  Level Montreal Center
Fri 11:41:19 AM 60.2000 -64.2000 217° Southwest 490 564 40,000  Level Montreal Center
Fri 11:42:19 AM 60.0833 -64.3333 210° Southwest 480 552 40,000  Level Montreal Center
Fri 11:43:19 AM 59.9833 -64.4667 214° Southwest 480 552 40,000  Level Montreal Center
Fri 11:44:19 AM 59.8667 -64.6500 218° Southwest 480 552 40,000  Level Montreal Center
Fri 11:45:19 AM 59.7333 -64.8000 210° Southwest 480 552 40,000  Level Montreal Center
Fri 11:46:19 AM 59.6333 -64.9333 214° Southwest 480 552 40,000  Level Montreal Center
Fri 11:47:19 AM 59.5167 -65.0667 210° Southwest 470 541 40,000  Level Montreal Center
Fri 11:48:19 AM 59.4167 -65.2333 220° Southwest 470 541 40,000  Level Montreal Center
Fri 11:49:19 AM 59.3167 -65.3667 214° Southwest 470 541 40,000  Level Montreal Center
Fri 11:50:19 AM 59.2000 -65.5000 210° Southwest 470 541 40,000  Level Montreal Center
Fri 11:51:19 AM 59.1000 -65.6333 214° Southwest 470 541 40,000  Level Montreal Center
Fri 11:52:19 AM 58.9833 -65.7500 207° Southwest 470 541 40,000  Level Montreal Center
Fri 11:53:19 AM 58.8833 -65.8833 215° Southwest 470 541 40,000  Level Montreal Center
Fri 11:54:19 AM 58.7667 -66.0167 211° Southwest 470 541 40,000  Level Montreal Center
Fri 11:55:19 AM 58.6667 -66.1500 215° Southwest 460 529 40,000  Level Montreal Center
Fri 11:56:19 AM 58.5500 -66.3000 214° Southwest 460 529 40,000  Level Montreal Center
Fri 11:57:19 AM 58.4500 -66.4333 215° Southwest 460 529 40,000  Level Montreal Center
Fri 11:58:19 AM 58.3167 -66.5667 208° Southwest 470 541 40,000  Level Montreal Center
Fri 11:59:19 AM 58.2167 -66.6833 212° Southwest 470 541 40,000  Level Montreal Center
Fri 12:00:19 PM 58.1000 -66.8167 211° Southwest 470 541 40,000  Level Montreal Center
Fri 12:01:19 PM 57.9833 -66.9667 214° Southwest 470 541 40,000  Level Montreal Center
Fri 12:02:19 PM 57.8667 -67.0833 208° Southwest 470 541 40,000  Level Montreal Center
Fri 12:03:19 PM 57.7500 -67.2167 211° Southwest 470 541 40,000  Level Montreal Center
Fri 12:04:19 PM 57.6500 -67.3333 212° Southwest 470 541 40,000  Level Montreal Center
Fri 12:05:19 PM 57.5333 -67.4500 208° Southwest 470 541 40,000  Level Montreal Center
Fri 12:06:19 PM 57.4333 -67.6000 219° Southwest 470 541 40,000  Level Montreal Center
Fri 12:07:19 PM 57.3167 -67.7167 208° Southwest 470 541 40,000  Level Montreal Center
Fri 12:08:19 PM 57.2000 -67.8500 212° Southwest 470 541 40,000  Level Montreal Center
Fri 12:09:19 PM 57.1000 -67.9667 212° Southwest 460 529 40,000  Level Montreal Center
Fri 12:10:19 PM 56.9833 -68.0833 209° Southwest 460 529 40,000  Level Montreal Center
Fri 12:11:19 PM 56.8667 -68.2000 209° Southwest 460 529 40,000  Level Montreal Center
Fri 12:12:19 PM 56.7667 -68.3000 209° Southwest 460 529 40,000  Level Montreal Center
Fri 12:13:19 PM 56.6500 -68.4500 215° Southwest 460 529 40,000  Level Montreal Center
Fri 12:14:19 PM 56.5167 -68.5667 206° Southwest 460 529 40,000  Level Montreal Center
Fri 12:15:19 PM 56.4167 -68.6833 213° Southwest 470 541 40,000  Level Montreal Center
Fri 12:16:19 PM 56.3000 -68.8000 209° Southwest 470 541 40,000  Level Montreal Center
Fri 12:17:19 PM 56.1833 -68.9333 212° Southwest 470 541 40,000  Level Montreal Center
Fri 12:18:19 PM 56.0833 -69.0500 213° Southwest 470 541 40,000  Level Montreal Center
Fri 12:19:19 PM 55.9667 -69.1667 209° Southwest 470 541 40,000  Level Montreal Center
Fri 12:20:19 PM 55.8500 -69.2667 206° Southwest 470 541 40,000  Level Montreal Center
Fri 12:21:19 PM 55.7333 -69.3833 209° Southwest 470 541 40,000  Level Montreal Center
Fri 12:22:19 PM 55.6333 -69.4833 209° Southwest 470 541 40,000  Level Montreal Center
Fri 12:23:19 PM 55.5167 -69.6167 213° Southwest 470 541 40,000  Level Montreal Center
Fri 12:24:19 PM 55.4000 -69.7333 210° Southwest 460 529 40,000  Level Montreal Center
Fri 12:25:19 PM 55.2833 -69.8333 206° Southwest 460 529 40,000  Level Montreal Center
Fri 12:26:19 PM 55.1833 -69.9500 214° Southwest 460 529 40,000  Level Montreal Center
Fri 12:27:19 PM 55.0500 -70.0833 210° Southwest 460 529 40,000  Level Montreal Center
Fri 12:28:19 PM 54.9333 -70.1833 206° Southwest 450 518 40,000  Level Montreal Center
Fri 12:29:19 PM 54.8333 -70.2500 201° Southwest 440 506 40,000  Level Montreal Center
Fri 12:30:19 PM 54.7333 -70.3667 214° Southwest 450 518 40,000  Level Montreal Center
Fri 12:31:19 PM 54.6167 -70.4667 206° Southwest 450 518 40,000  Level Montreal Center
Fri 12:32:19 PM 54.5167 -70.5667 210° Southwest 450 518 40,000  Level Montreal Center
Fri 12:33:19 PM 54.3833 -70.7000 210° Southwest 460 529 40,000  Level Montreal Center
Fri 12:34:19 PM 54.2667 -70.7667 198° South 470 541 40,000  Level Montreal Center
Fri 12:35:19 PM 54.1333 -70.8167 192° South 460 529 40,000  Level Montreal Center
Fri 12:36:19 PM 54.0167 -70.8333 185° South 460 529 40,000  Level Montreal Center
Fri 12:37:19 PM 53.8833 -70.8833 192° South 470 541 40,000  Level Montreal Center
Fri 12:38:19 PM 53.7500 -70.9167 188° South 470 541 40,000  Level Montreal Center
Fri 12:39:19 PM 53.6333 -70.9667 194° South 470 541 40,000  Level Montreal Center
Fri 12:40:19 PM 53.5000 -71.0000 188° South 470 541 40,000  Level Montreal Center
Fri 12:41:19 PM 53.3667 -71.0500 193° South 470 541 40,000  Level Montreal Center
Fri 12:42:19 PM 53.2333 -71.1000 193° South 470 541 40,000  Level Montreal Center
Fri 12:43:19 PM 53.1000 -71.1333 189° South 470 541 40,000  Level Montreal Center
Fri 12:44:19 PM 52.9667 -71.1833 193° South 470 541 40,000  Level Montreal Center
Fri 12:45:19 PM 52.8333 -71.2167 189° South 470 541 40,000  Level Montreal Center
Fri 12:46:19 PM 52.7167 -71.2667 195° South 470 541 40,000  Level Montreal Center
Fri 12:47:19 PM 52.5833 -71.3000 189° South 470 541 40,000  Level Montreal Center
Fri 12:48:19 PM 52.4500 -71.3500 193° South 480 552 40,000  Level Montreal Center
Fri 12:49:19 PM 52.3167 -71.3667 184° South 480 552 40,000  Level Montreal Center
Fri 12:50:19 PM 52.1833 -71.4333 197° South 480 552 40,000  Level Montreal Center
Fri 12:51:19 PM 52.0500 -71.4500 184° South 480 552 40,000  Level Montreal Center
Fri 12:52:19 PM 51.9167 -71.5167 197° South 470 541 40,000  Level Montreal Center
Fri 12:53:19 PM 51.7833 -71.5333 184° South 480 552 40,000  Level Montreal Center
Fri 12:54:19 PM 51.6667 -71.5667 190° South 480 552 40,000  Level Montreal Center
Fri 12:55:19 PM 51.5333 -71.6000 189° South 480 552 40,000  Level Montreal Center
Fri 12:56:19 PM 51.4000 -71.6500 193° South 480 552 40,000  Level Montreal Center
Fri 12:57:19 PM 51.2667 -71.6833 189° South 470 541 40,000  Level Montreal Center
Fri 12:58:19 PM 51.1333 -71.7333 193° South 470 541 40,000  Level Montreal Center
Fri 12:59:19 PM 51.0000 -71.7667 189° South 470 541 40,000  Level Montreal Center
Fri 01:00:19 PM 50.8833 -71.8000 190° South 470 541 40,000  Level Montreal Center
Fri 01:01:19 PM 50.7500 -71.8333 189° South 470 541 40,000  Level Montreal Center
Fri 01:07:17 PM 49.9970 -72.0720 189° South 467 537 40,000  Level FlightAware ADS-B
Fri 01:07:52 PM 49.9230 -72.0930 190° South 467 537 40,000  Level FlightAware ADS-B
Fri 01:08:39 PM 49.8380 -72.1160 190° South 467 537 40,000  Level FlightAware ADS-B
Fri 01:09:17 PM 49.7360 -72.1430 190° South 463 533 40,000  Level FlightAware ADS-B
Fri 01:09:52 PM 49.6630 -72.1630 190° South 463 533 40,000  Level FlightAware ADS-B
Fri 01:10:39 PM 49.5630 -72.1900 190° South 463 533 40,000  Level FlightAware ADS-B
Fri 01:11:35 PM 49.4470 -72.2210 190° South 456 525 40,000  Level FlightAware ADS-B
Fri 01:12:19 PM 49.3580 -72.2450 190° South 449 517 40,000  Level FlightAware ADS-B
Fri 01:12:59 PM 49.2770 -72.2670 190° South 449 517 40,000  Level FlightAware ADS-B
Fri 01:13:54 PM 49.1810 -72.2910 189° South 449 517 40,000  Level FlightAware ADS-B
Fri 01:14:36 PM 49.0830 -72.3180 190° South 447 514 40,000  Level FlightAware ADS-B
Fri 01:15:34 PM 48.9870 -72.3420 189° South 447 514 40,000  Level FlightAware ADS-B
Fri 01:16:14 PM 48.8970 -72.3670 190° South 449 517 40,000  Level FlightAware ADS-B
Fri 01:17:38 PM 48.7230 -72.4130 190° South 443 510 40,000  Level FlightAware ADS-B
Fri 01:18:14 PM 48.6620 -72.4290 190° South 443 510 40,000  Level FlightAware ADS-B
Fri 01:18:58 PM 48.5510 -72.4570 189° South 40,000  Level FlightAware ADS-B
Fri 01:19:38 PM 48.4600 -72.4810 190° South 451 519 40,000  Level FlightAware ADS-B
Fri 01:20:18 PM 48.3820 -72.5010 190° South 453 521 40,000  Level FlightAware ADS-B
Fri 01:21:03 PM 48.2840 -72.5260 190° South 455 524 40,000  Level FlightAware ADS-B
Fri 01:21:38 PM 48.2130 -72.5440 190° South 457 526 40,000  Level FlightAware ADS-B
Fri 01:22:18 PM 48.1280 -72.5650 189° South 459 528 40,000  Level FlightAware ADS-B
Fri 01:23:03 PM 48.0350 -72.5890 190° South 460 529 40,000  Level FlightAware ADS-B
Fri 01:23:43 PM 47.9500 -72.6100 189° South 462 532 40,000  Level FlightAware ADS-B
Fri 01:24:28 PM 47.8550 -72.6340 190° South 464 534 40,000  Level FlightAware ADS-B
Fri 01:25:08 PM 47.7740 -72.6550 190° South 465 535 40,000  Level FlightAware ADS-B
Fri 01:25:53 PM 47.6760 -72.6790 189° South 464 534 40,000  Level FlightAware ADS-B
Fri 01:26:33 PM 47.5920 -72.7000 190° South 462 532 40,000  Level FlightAware ADS-B
Fri 01:27:13 PM 47.5080 -72.7210 190° South 464 534 40,000  Level FlightAware ADS-B
Fri 01:27:58 PM 47.4130 -72.7450 190° South 464 534 40,000  Level FlightAware ADS-B
Fri 01:28:38 PM 47.3280 -72.7650 189° South 463 533 40,000  Level FlightAware ADS-B
Fri 01:29:23 PM 47.2340 -72.7890 190° South 462 532 40,000  Level FlightAware ADS-B
Fri 01:30:03 PM 47.1500 -72.8090 189° South 462 532 40,000  Level FlightAware ADS-B
Fri 01:30:38 PM 47.0760 -72.8270 189° South 463 533 40,000  Level FlightAware ADS-B
Fri 01:31:18 PM 46.9910 -72.8480 190° South 463 533 40,000  Level FlightAware ADS-B
Fri 01:32:03 PM 46.8970 -72.8710 189° South 461 531 40,000  Level FlightAware ADS-B
Fri 01:32:43 PM 46.8140 -72.8910 189° South 460 529 40,000  Level FlightAware ADS-B
Fri 01:33:23 PM 46.7300 -72.9110 189° South 458 527 40,000  Level FlightAware ADS-B
Fri 01:34:03 PM 46.6460 -72.9310 189° South 456 525 40,000  Level FlightAware ADS-B
Fri 01:34:48 PM 46.5530 -72.9530 189° South 453 521 40,000  Level FlightAware ADS-B
Fri 01:35:28 PM 46.4710 -72.9730 190° South 451 519 40,000  Level FlightAware ADS-B
Fri 01:36:08 PM 46.3900 -72.9920 189° South 450 518 40,000  Level FlightAware ADS-B
Fri 01:36:48 PM 46.3080 -73.0120 190° South 450 518 40,000  Level FlightAware ADS-B
Fri 01:37:28 PM 46.2250 -73.0310 189° South 452 520 40,000  Level FlightAware ADS-B
Fri 01:38:13 PM 46.1330 -73.0530 189° South 452 520 40,000  Level FlightAware ADS-B
Fri 01:38:53 PM 46.0560 -73.0710 189° South 450 518 40,000  Level FlightAware ADS-B
Fri 01:39:38 PM 45.9590 -73.0940 189° South 448 516 40,000  Level FlightAware ADS-B
Fri 01:40:18 PM 45.8760 -73.1130 189° South 448 516 40,000  Level FlightAware ADS-B
Fri 01:40:53 PM 45.8070 -73.1290 189° South 447 514 40,000  Level FlightAware ADS-B
Fri 01:41:35 PM 45.7240 -73.1490 190° South 449 517 40,000  Level FlightAware ADS-B
Fri 01:42:18 PM 45.6310 -73.1700 189° South 450 518 40,000  Level FlightAware ADS-B
Fri 01:42:53 PM 45.5600 -73.1860 189° South 450 518 40,000  Level FlightAware ADS-B
Fri 01:43:33 PM 45.4780 -73.2050 189° South 451 519 40,000  Level FlightAware ADS-B
Fri 01:44:18 PM 45.3850 -73.2270 189° South 454 522 40,000  Level FlightAware ADS-B
Fri 01:44:53 PM 45.3130 -73.2430 189° South 456 525 40,000  Level FlightAware ADS-B
Fri 01:45:45 PM 45.2190 -73.2640 189° South 454 522 40,000  Level FlightAware ADS-B
Fri 01:46:23 PM 45.1280 -73.2850 189° South 453 521 40,000  Level FlightAware ADS-B
Fri 01:47:08 PM 45.0350 -73.3060 189° South 451 519 40,000  Level FlightAware ADS-B
Fri 01:47:48 PM 44.9520 -73.3250 189° South 450 518 40,000  Level FlightAware ADS-B
Fri 01:48:40 PM 44.8450 -73.3490 189° South 451 519 40,000  Level FlightAware ADS-B
Fri 01:49:18 PM 44.7650 -73.3670 189° South 451 519 40,000  Level FlightAware ADS-B
Fri 01:50:03 PM 44.6720 -73.3880 189° South 454 522 40,000  Level FlightAware ADS-B
Fri 01:50:43 PM 44.5910 -73.4060 189° South 455 524 40,000  Level FlightAware ADS-B
Fri 01:51:28 PM 44.5050 -73.4250 189° South 454 522 40,000  Level FlightAware ADS-B
Fri 01:52:08 PM 44.4150 -73.4450 189° South 454 522 40,000  Level FlightAware ADS-B
Fri 01:52:54 PM 44.3210 -73.4660 189° South 451 519 40,000  Level FlightAware ADS-B
Fri 01:53:45 PM 44.2160 -73.4890 189° South 452 520 40,000  Level FlightAware ADS-B
Fri 01:54:15 PM 44.1550 -73.5020 189° South 452 520 40,000  Level FlightAware ADS-B
Fri 01:54:55 PM 44.0800 -73.5190 189° South 443 510 40,000  Level FlightAware ADS-B
Fri 01:55:35 PM 43.9930 -73.5380 189° South 452 520 40,000  Level FlightAware ADS-B
Fri 01:56:15 PM 43.9090 -73.5560 189° South 443 510 40,000  Level FlightAware ADS-B
Fri 01:57:05 PM 43.8030 -73.5790 189° South 443 510 40,000  Level FlightAware ADS-B
Fri 01:57:44 PM 43.7230 -73.5960 189° South 452 520 40,000  Level FlightAware ADS-B
Fri 01:58:25 PM 43.6380 -73.6140 189° South 452 520 40,000  Level FlightAware ADS-B
Fri 01:59:41 PM 43.5160 -73.6400 189° South 453 521 40,000  Level FlightAware ADS-B
Fri 02:00:17 PM 43.4020 -73.6650 189° South 455 524 40,000 -525 Level FlightAware ADS-B
Fri 02:01:01 PM 43.3110 -73.6840 189° South 453 521 39,300 -955 Descending FlightAware ADS-B
Fri 02:01:45 PM 43.2210 -73.7040 189° South 455 524 38,600 -907 Descending FlightAware ADS-B
Fri 02:02:27 PM 43.1340 -73.7220 189° South 458 527 38,000 -439 Descending FlightAware ADS-B
Fri 02:03:07 PM 43.0490 -73.7400 189° South 455 524 38,000  Level FlightAware ADS-B
Fri 02:03:51 PM 42.9560 -73.7600 189° South 454 522 38,000  Level FlightAware ADS-B
Fri 02:04:31 PM 42.8750 -73.7770 189° South 456 525 38,000  Level FlightAware ADS-B
Fri 02:05:17 PM 42.7870 -73.7940 188° South 455 524 38,000 -425 Level FlightAware ADS-B
Fri 02:06:24 PM 42.6520 -73.8050 183° South 464 534 37,200 -837 Descending FlightAware ADS-B
Fri 02:07:26 PM 42.5130 -73.8060 180° South 464 534 36,200 -496 Descending FlightAware ADS-B
Fri 02:08:25 PM 42.4050 -73.8060 180° South 464 534 36,200  Level FlightAware ADS-B
Fri 02:09:01 PM 42.3400 -73.8060 180° South 464 534 36,200 -3,649 Level FlightAware ADS-B
Fri 02:09:39 PM 42.2130 -73.8120 182° South 461 531 31,700 -4,148 Descending FlightAware ADS-B
Fri 02:10:22 PM 42.1250 -73.8140 181° South 449 517 30,600 -825 Descending FlightAware ADS-B
Fri 02:10:59 PM 42.0590 -73.8140 180° South 449 517 30,600 -1,658 Level FlightAware ADS-B
Fri 02:11:38 PM 41.9690 -73.8170 181° South 450 518 28,500 -2,222 Descending FlightAware ADS-B
Fri 02:12:20 PM 41.8860 -73.8400 192° South 438 504 27,600 -1,533 Descending FlightAware ADS-B
Fri 02:13:08 PM 41.7934 -73.8823 199° South 428 493 26,200 -1,694 Descending FlightAware ADS-B
Fri 02:13:45 PM 41.7230 -73.9134 198° South 422 486 25,200 -1,694 Descending FlightAware ADS-B
Fri 02:14:33 PM 41.6347 -73.9526 198° South 416 479 23,800 -1,671 Descending FlightAware ADS-B
Fri 02:15:04 PM 41.5802 -73.9770 199° South 411 473 23,000 -1,594 Descending FlightAware ADS-B
Fri 02:15:37 PM 41.5199 -74.0037 198° South 406 467 22,100 -1,619 Descending FlightAware ADS-B
Fri 02:16:07 PM 41.4666 -74.0271 198° South 399 459 21,300 -1,607 Descending FlightAware ADS-B
Fri 02:16:33 PM 41.4212 -74.0469 198° South 398 458 20,600 -1,600 Descending FlightAware ADS-B
Fri 02:16:37 PM 41.4148 -74.0491 194° South 399 459 20,500 -857 Descending FlightAware ADS-B
Fri 02:17:08 PM 41.3580 -74.0596 188° South 400 460 20,100 -484 Descending FlightAware ADS-B
Fri 02:17:39 PM 41.3003 -74.0693 187° South 400 460 20,000 -295 Descending FlightAware ADS-B
Fri 02:18:09 PM 41.2449 -74.0789 187° South 400 460 19,800 -667 Descending FlightAware ADS-B
Fri 02:18:42 PM 41.1851 -74.0891 187° South 398 458 19,300 -762 Descending FlightAware ADS-B
Fri 02:19:12 PM 41.1304 -74.0982 187° South 396 456 19,000 -400 Descending FlightAware ADS-B
Fri 02:19:27 PM 41.1037 -74.1028 187° South 396 456 19,000  Level FlightAware ADS-B
Fri 02:19:42 PM 41.0752 -74.1077 187° South 393 452 19,000  Level FlightAware ADS-B
Fri 02:19:58 PM 41.0467 -74.1125 187° South 391 450 19,000  Level FlightAware ADS-B
Fri 02:20:12 PM 41.0212 -74.1168 187° South 386 444 19,000  Level FlightAware ADS-B
Fri 02:20:31 PM 40.9893 -74.1221 187° South 361 415 19,000  Level FlightAware ADS-B
Fri 02:20:44 PM 40.9686 -74.1255 187° South 350 403 19,000  Level FlightAware ADS-B
Fri 02:21:00 PM 40.9428 -74.1278 184° South 342 394 19,000  Level FlightAware ADS-B
Fri 02:21:02 PM 40.9393 -74.1273 174° South 341 392 19,000  Level FlightAware ADS-B
Fri 02:21:04 PM 40.9363 -74.1267 171° South 341 392 19,000  Level FlightAware ADS-B
Fri 02:21:07 PM 40.9317 -74.1254 168° South 341 392 19,000  Level FlightAware ADS-B
Fri 02:21:13 PM 40.9239 -74.1221 162° South 341 392 19,000  Level FlightAware ADS-B
Fri 02:21:18 PM 40.9166 -74.1175 155° Southeast 342 394 19,000  Level FlightAware ADS-B
Fri 02:21:19 PM 40.9150 -74.1164 153° Southeast 342 394 19,000  Level FlightAware ADS-B
Fri 02:21:25 PM 40.9069 -74.1092 146° Southeast 345 397 19,000  Level FlightAware ADS-B
Fri 02:21:30 PM 40.9007 -74.1018 138° Southeast 349 402 19,000  Level FlightAware ADS-B
Fri 02:21:36 PM 40.8945 -74.0921 130° Southeast 355 409 19,000  Level FlightAware ADS-B
Fri 02:21:37 PM 40.8937 -74.0905 123° Southeast 355 409 19,000  Level FlightAware ADS-B
Fri 02:21:42 PM 40.8895 -74.0816 122° Southeast 358 412 19,000  Level FlightAware ADS-B
Fri 02:21:43 PM 40.8888 -74.0797 116° Southeast 359 413 19,000  Level FlightAware ADS-B
Fri 02:22:13 PM 40.8691 -74.0184 113° Southeast 362 417 19,000  Level FlightAware ADS-B
Fri 02:22:14 PM 40.8688 -74.0175 114° Southeast 362 417 19,000  Level FlightAware ADS-B
Fri 02:22:28 PM 40.8593 -73.9875 113° Southeast 364 419 19,000 -240 Level FlightAware ADS-B
Fri 02:22:39 PM 40.8506 -73.9672 120° Southeast 359 413 18,900 -800 Descending FlightAware ADS-B
Fri 02:22:43 PM 40.8466 -73.9606 129° Southeast 355 409 18,800 -1,714 Descending FlightAware ADS-B
Fri 02:22:46 PM 40.8434 -73.9560 133° Southeast 353 406 18,700 -1,333 Descending FlightAware ADS-B
Fri 02:22:52 PM 40.8360 -73.9468 137° Southeast 347 399 18,600 -857 Descending FlightAware ADS-B
Fri 02:22:53 PM 40.8344 -73.9449 138° Southeast 347 399 18,600 -1,125 Level FlightAware ADS-B
Fri 02:23:24 PM 40.7969 -73.9048 141° Southeast 340 391 18,000 -1,273 Descending FlightAware ADS-B
Fri 02:23:59 PM 40.7539 -73.8597 142° Southeast 335 386 17,200 -1,385 Descending FlightAware ADS-B
Fri 02:24:29 PM 40.7174 -73.8219 142° Southeast 334 384 16,500 -1,395 Descending FlightAware ADS-B
Fri 02:24:42 PM 40.7016 -73.8035 139° Southeast 338 389 16,200 -1,220 Descending FlightAware ADS-B
Fri 02:25:28 PM 40.6700 -73.7190 116° Southeast 341 392 15,300 -1,200 Descending FlightAware ADS-B
Fri 02:25:52 PM 40.6550 -73.6724 113° Southeast 344 396 14,800 -1,254 Descending FlightAware ADS-B
Fri 02:26:35 PM 40.6306 -73.5919 112° Southeast 335 386 13,900 -1,224 Descending FlightAware ADS-B
Fri 02:26:41 PM 40.6298 -73.5797 95° East 339 390 13,800 -1,286 Descending FlightAware ADS-B
Fri 02:26:49 PM 40.6310 -73.5621 85° East 340 391 13,600 -1,500 Descending FlightAware ADS-B
Fri 02:27:29 PM 40.6494 -73.4836 73° East 333 383 12,600 -1,585 Descending FlightAware ADS-B
Fri 02:27:42 PM 40.6616 -73.4663 47° Northeast 322 371 12,200 -2,038 Descending FlightAware ADS-B
Fri 02:28:22 PM 40.7070 -73.4160 40° Northeast 313 360 10,800 -1,725 Descending FlightAware ADS-B
Fri 02:29:02 PM 40.7500 -73.3690 40° Northeast 312 359 9,900 -1,791 Descending FlightAware ADS-B
Fri 02:29:29 PM 40.7820 -73.3350 39° Northeast 313 360 8,800 -2,432 Descending FlightAware ADS-B
Fri 02:29:39 PM 40.7940 -73.3230 37° Northeast 309 356 8,400 -1,935 Descending FlightAware ADS-B
Fri 02:30:00 PM 40.8210 -73.3120 17° North 294 338 7,800 -1,467 Descending FlightAware ADS-B
Fri 02:30:24 PM 40.8500 -73.3250 341° North 276 318 7,300 -1,167 Descending FlightAware ADS-B
Fri 02:30:36 PM 40.8590 -73.3390 310° West 271 312 7,100 -1,227 Descending FlightAware ADS-B
Fri 02:31:08 PM 40.8790 -73.3860 299° West 267 307 6,400 -1,250 Descending FlightAware ADS-B
Fri 02:31:24 PM 40.8890 -73.4090 300° West 265 305 6,100 -1,350 Descending FlightAware ADS-B
Fri 02:31:48 PM 40.9030 -73.4430 299° West 260 299 5,500 -1,235 Descending FlightAware ADS-B
Fri 02:31:58 PM 40.9050 -73.4560 282° West 257 296 5,400 -698 Descending FlightAware ADS-B
Fri 02:32:31 PM 40.8870 -73.5000 242° Southwest 237 273 5,000 -610 Descending FlightAware ADS-B
Fri 02:32:57 PM 40.8630 -73.5170 208° Southwest 225 259 4,800 -439 Descending FlightAware ADS-B
Fri 02:33:12 PM 40.8510 -73.5290 217° Southwest 219 252 4,700 -698 Descending FlightAware ADS-B
Fri 02:33:40 PM 40.8300 -73.5530 221° Southwest 212 244 4,300 -750 Descending FlightAware ADS-B
Fri 02:34:08 PM 40.8100 -73.5750 220° Southwest 202 232 4,000 -632 Descending FlightAware ADS-B
Fri 02:34:37 PM 40.7890 -73.5990 221° Southwest 197 227 3,700 -800 Descending FlightAware ADS-B
Fri 02:34:53 PM 40.7770 -73.6110 217° Southwest 194 223 3,400 -1,171 Descending FlightAware ADS-B
Fri 02:35:18 PM 40.7600 -73.6300 220° Southwest 192 221 2,900 -1,200 Descending FlightAware ADS-B
Fri 02:35:38 PM 40.7470 -73.6450 221° Southwest 187 215 2,500 -1,080 Descending FlightAware ADS-B
Fri 02:36:08 PM 40.7280 -73.6660 220° Southwest 173 199 2,000 -913 Descending FlightAware ADS-B
Fri 02:36:24 PM 40.7180 -73.6770 220° Southwest 169 194 1,800 -900 Descending FlightAware ADS-B
Fri 02:36:48 PM 40.7030 -73.6940 221° Southwest 169 194 1,400 -1,050 Descending FlightAware ADS-B
Fri 02:37:04 PM 40.6950 -73.7030 220° Southwest 156 180 1,100 -900 Descending FlightAware ADS-B
Fri 02:37:28 PM 40.6820 -73.7170 219° Southwest 140 161 800 -789 Descending FlightAware ADS-B
Fri 02:37:42 PM 40.6760 -73.7250 225° Southwest 135 155 600 -818 Descending FlightAware ADS-B
Fri 02:38:12 PM 40.6620 -73.7420 223° Southwest 132 152 200 -800 Descending FlightAware ADS-B
Fri 02:38:40 PM 40.6480 -73.7530 211° Southwest 131 151 -429 Descending FlightAware ADS-B
Fri 02:38:58 PM 40.6380 -73.7610 211° Southwest 121 139  Level FlightAware ADS-B
Fri 02:39:26 PM 40.6290 -73.7680 211° Southwest 37 43  Level FlightAware ADS-B
Fri 02:39:54 PM 40.6260 -73.7700 207° Southwest 29 33  Level FlightAware ADS-B
Fri 02:45:00 PM 40.6333 -73.7667 258° West  Level FlightAware Approximate

Login

Don't have an account? Register now (free) for customized features, flight alerts, and more!